Observation data for Welch on 04/23/2019      Previous  Date  Next       Current Mesonet Observations  Soil Data  Daily Summary Page  Observations in Plain Language
KWE2 230500Z 05009KT 15/15 A3004 RMK A01 T01500148  RH  099%=      5-min Rain = 0
KWE2 230501Z 05009KT 15/15 A3004 RMK A01 T01500149  RH  099%=      5-min Rain = 0
KWE2 230502Z 05007KT 15/15 A3004 RMK A01 T01500148  RH  099%=      5-min Rain = 0
KWE2 230503Z 05009KT 15/15 A3004 RMK A01 T01500148  RH  099%=      5-min Rain = 0
KWE2 230504Z 06011KT 15/15 A3004 RMK A01 T01500149  RH  099%=      5-min Rain = 0
KWE2 230505Z 05010KT 15/15 A3004 RMK A01 T01500148  RH  099%=      5-min Rain = 0
KWE2 230506Z 06009KT 15/15 A3004 RMK A01 T01500148  RH  099%=      5-min Rain = 0
KWE2 230507Z 05009KT 15/15 A3004 RMK A01 T01500149  RH  099%=      5-min Rain = 0
KWE2 230508Z 05009KT 15/15 A3004 RMK A01 T01500149  RH  099%=      5-min Rain = 0
KWE2 230509Z 05009KT 15/15 A3004 RMK A01 T01500149  RH  099%=      5-min Rain = 0
KWE2 230510Z 05010KT 15/15 A3004 RMK A01 T01500149  RH  099%=      5-min Rain = 0
KWE2 230511Z 05009KT 15/15 A3004 RMK A01 T01500148  RH  099%=      5-min Rain = 0
KWE2 230512Z 05009KT 15/15 A3004 RMK A01 T01500148  RH  099%=      5-min Rain = 0
KWE2 230513Z 04011KT 15/15 A3004 RMK A01 T01500148  RH  099%=      5-min Rain = 0
KWE2 230514Z 05012KT 15/15 A3004 RMK A01 T01500148  RH  099%=      5-min Rain = 0
KWE2 230515Z 05010KT 15/15 A3004 RMK A01 T01490148  RH  099%=      5-min Rain = 0
KWE2 230516Z 05011KT 15/15 A3004 RMK A01 T01490148  RH  099%=      5-min Rain = 0
KWE2 230517Z 05010KT 15/15 A3004 RMK A01 T01500148  RH  099%=      5-min Rain = 0
KWE2 230518Z 05009KT 15/15 A3004 RMK A01 T01500148  RH  099%=      5-min Rain = 0
KWE2 230519Z 05009KT 15/15 A3004 RMK A01 T01500148  RH  099%=      5-min Rain = 0
KWE2 230520Z 05009KT 15/15 A3004 RMK A01 T01500148  RH  099%=      5-min Rain = 0
KWE2 230521Z 05011KT 15/15 A3004 RMK A01 T01500148  RH  099%=      5-min Rain = 0
KWE2 230522Z 04010KT 15/15 A3004 RMK A01 T01500148  RH  099%=      5-min Rain = 0
KWE2 230523Z 05010KT 15/15 A3004 RMK A01 T01500148  RH  099%=      5-min Rain = 0
KWE2 230524Z 04011KT 15/15 A3004 RMK A01 T01490148  RH  099%=      5-min Rain = 0
KWE2 230525Z 05013KT 15/15 A3003 RMK A01 T01500148  RH  099%=      5-min Rain = 0
KWE2 230526Z 04010KT 15/15 A3003 RMK A01 T01500148  RH  099%=      5-min Rain = 0
KWE2 230527Z 04011KT 15/15 A3003 RMK A01 T01490148  RH  099%=      5-min Rain = 0
KWE2 230528Z 05011KT 15/15 A3003 RMK A01 T01490148  RH  099%=      5-min Rain = 0
KWE2 230529Z 05013KT 15/15 A3003 RMK A01 T01490148  RH  099%=      5-min Rain = 0
KWE2 230530Z 05011KT 15/15 A3003 RMK A01 T01490148  RH  099%=      5-min Rain = 0
KWE2 230531Z 04010KT 15/15 A3003 RMK A01 T01490148  RH  099%=      5-min Rain = 0
KWE2 230532Z 05011KT 15/15 A3003 RMK A01 T01490148  RH  099%=      5-min Rain = 0
KWE2 230533Z 05009KT 15/15 A3003 RMK A01 T01490147  RH  099%=      5-min Rain = 0
KWE2 230534Z 04009KT 15/15 A3003 RMK A01 T01490148  RH  099%=      5-min Rain = 0
KWE2 230535Z 04010KT 15/15 A3003 RMK A01 T01490148  RH  099%=      5-min Rain = 0
KWE2 230536Z 04011KT 15/15 A3003 RMK A01 T01490148  RH  099%=      5-min Rain = 0
KWE2 230537Z 04010KT 15/15 A3003 RMK A01 T01490148  RH  099%=      5-min Rain = 0
KWE2 230538Z 04013KT 15/15 A3003 RMK A01 T01490148  RH  099%=      5-min Rain = 0
KWE2 230539Z 04010KT 15/15 A3003 RMK A01 T01490148  RH  099%=      5-min Rain = 0
KWE2 230540Z 04011KT 15/15 A3003 RMK A01 T01490148  RH  099%=      5-min Rain = 0
KWE2 230541Z 05011KT 15/15 A3003 RMK A01 T01490147  RH  099%=      5-min Rain = 0
KWE2 230542Z 04010KT 15/15 A3003 RMK A01 T01490147  RH  099%=      5-min Rain = 0
KWE2 230543Z 04011KT 15/15 A3003 RMK A01 T01490148  RH  099%=      5-min Rain = 0
KWE2 230544Z 04010KT 15/15 A3003 RMK A01 T01490147  RH  099%=      5-min Rain = 0
KWE2 230545Z 04008KT 15/15 A3003 RMK A01 T01490148  RH  099%=      5-min Rain = 0
KWE2 230546Z 04010KT 15/15 A3003 RMK A01 T01490148  RH  099%=      5-min Rain = 0
KWE2 230547Z 05011KT 15/15 A3003 RMK A01 T01490148  RH  099%=      5-min Rain = 0
KWE2 230548Z 05009KT 15/15 A3003 RMK A01 T01480147  RH  099%=      5-min Rain = 0
KWE2 230549Z 05010KT 15/15 A3003 RMK A01 T01480148  RH  100%=      5-min Rain = 0
KWE2 230550Z 05009KT 15/15 A3003 RMK A01 T01480147  RH  100%=      5-min Rain = 0
KWE2 230551Z 05009KT 15/15 A3003 RMK A01 T01480148  RH  100%=      5-min Rain = 0
KWE2 230552Z 04010KT 15/15 A3002 RMK A01 T01480148  RH  100%=      5-min Rain = 0
KWE2 230553Z 04009KT 15/15 A3002 RMK A01 T01480147  RH  099%=      5-min Rain = 0
KWE2 230554Z 04010KT 15/15 A3002 RMK A01 T01480147  RH  099%=      5-min Rain = 0
KWE2 230555Z 04009KT 15/15 A3003 RMK A01 T01480148  RH  100%=      5-min Rain = 0
KWE2 230556Z 05009KT 15/15 A3003 RMK A01 T01480148  RH  100%=      5-min Rain = 0
KWE2 230557Z 04009KT 15/15 A3003 RMK A01 T01480148  RH  100%=      5-min Rain = 0
KWE2 230558Z 04009KT 15/15 A3002 RMK A01 T01480148  RH  100%=      5-min Rain = 0
KWE2 230559Z 04009KT 15/15 A3002 RMK A01 T01480148  RH  100%=      5-min Rain = 0
KWE2 230600Z 04009KT 15/15 A3002 RMK A01 T01480148  RH  100%=      5-min Rain = 0
KWE2 230601Z 04011KT 15/15 A3002 RMK A01 T01480148  RH  100%=      5-min Rain = 0
KWE2 230602Z 04010KT 15/15 A3002 RMK A01 T01480148  RH  100%=      5-min Rain = 0
KWE2 230603Z 04009KT 15/15 A3002 RMK A01 T01480148  RH  100%=      5-min Rain = 0
KWE2 230604Z 04010KT 15/15 A3002 RMK A01 T01480148  RH  100%=      5-min Rain = 0
KWE2 230605Z 04010KT 15/15 A3002 RMK A01 T01480148  RH  100%=      5-min Rain = 0
KWE2 230606Z 04011KT 15/15 A3002 RMK A01 T01480148  RH  100%=      5-min Rain = 0
KWE2 230607Z 04011KT 15/15 A3002 RMK A01 T01480147  RH  100%=      5-min Rain = 0
KWE2 230608Z 04012KT 15/15 A3002 RMK A01 T01480147  RH  100%=      5-min Rain = 0
KWE2 230609Z 04009KT 15/15 A3003 RMK A01 T01480147  RH  099%=      5-min Rain = 0
KWE2 230610Z 04009KT 15/15 A3003 RMK A01 T01480147  RH  100%=      5-min Rain = 0
KWE2 230611Z 05010KT 15/15 A3003 RMK A01 T01480147  RH  100%=      5-min Rain = 0
KWE2 230612Z 04009KT 15/15 A3003 RMK A01 T01480147  RH  100%=      5-min Rain = 0
KWE2 230613Z 04008G13KT 15/15 A3003 RMK A01 T01480148  RH  100%=      5-min Rain = 0
KWE2 230614Z 04011KT 15/15 A3003 RMK A01 T01480147  RH  100%=      5-min Rain = 0
KWE2 230615Z 04010KT 15/15 A3003 RMK A01 T01480147  RH  099%=      5-min Rain = 0
KWE2 230616Z 04009KT 15/15 A3003 RMK A01 T01480147  RH  099%=      5-min Rain = 0
KWE2 230617Z 04009KT 15/15 A3003 RMK A01 T01480147  RH  099%=      5-min Rain = 0
KWE2 230618Z 03010KT 15/15 A3004 RMK A01 T01480147  RH  099%=      5-min Rain = 0
KWE2 230619Z 04008KT 15/15 A3004 RMK A01 T01480147  RH  099%=      5-min Rain = 0
KWE2 230620Z 04008KT 15/15 A3004 RMK A01 T01480147  RH  099%=      5-min Rain = 0
KWE2 230621Z 04008KT 15/15 A3004 RMK A01 T01480147  RH  100%=      5-min Rain = 0
KWE2 230622Z 03009KT 15/15 A3004 RMK A01 T01480147  RH  100%=      5-min Rain = 0
KWE2 230623Z 03012KT 15/15 A3004 RMK A01 T01480147  RH  099%=      5-min Rain = 0
KWE2 230624Z 03009KT 15/15 A3004 RMK A01 T01480147  RH  099%=      5-min Rain = 0
KWE2 230625Z 03010KT 15/15 A3004 RMK A01 T01480147  RH  099%=      5-min Rain = 0
KWE2 230626Z 03009KT 15/15 A3004 RMK A01 T01480147  RH  099%=      5-min Rain = 0
KWE2 230627Z 02008KT 15/15 A3004 RMK A01 T01480147  RH  100%=      5-min Rain = 0
KWE2 230628Z 03010KT 15/15 A3004 RMK A01 T01480147  RH  100%=      5-min Rain = 0
KWE2 230629Z 03010KT 15/15 A3004 RMK A01 T01480147  RH  099%=      5-min Rain = 0
KWE2 230630Z 02009KT 15/15 A3004 RMK A01 T01480147  RH  099%=      5-min Rain = 0
KWE2 230631Z 03009KT 15/15 A3004 RMK A01 T01480147  RH  100%=      5-min Rain = 0
KWE2 230632Z 03009KT 15/15 A3004 RMK A01 T01480147  RH  100%=      5-min Rain = 0
KWE2 230633Z 03009KT 15/15 A3004 RMK A01 T01480147  RH  100%=      5-min Rain = 0
KWE2 230634Z 03009KT 15/15 A3004 RMK A01 T01480147  RH  100%=      5-min Rain = 0
KWE2 230635Z 03010KT 15/15 A3004 RMK A01 T01480148  RH  100%=      5-min Rain = 0
KWE2 230636Z 03009KT 15/15 A3003 RMK A01 T01480147  RH  100%=      5-min Rain = 0
KWE2 230637Z 03009KT 15/15 A3003 RMK A01 T01480148  RH  100%=      5-min Rain = 0
KWE2 230638Z 03009KT 15/15 A3003 RMK A01 T01480148  RH  100%=      5-min Rain = 0
KWE2 230639Z 03009KT 15/15 A3003 RMK A01 T01480148  RH  100%=      5-min Rain = 0
KWE2 230640Z 03011KT 15/15 A3003 RMK A01 T01470148  RH  100%=      5-min Rain = 0
KWE2 230641Z 03009KT 15/15 A3003 RMK A01 T01470148  RH  100%=      5-min Rain = 0
KWE2 230642Z 03011KT 15/15 A3003 RMK A01 T01470147  RH  100%=      5-min Rain = 0
KWE2 230643Z 03012KT 15/15 A3003 RMK A01 T01470147  RH  100%=      5-min Rain = 0
KWE2 230644Z 03011KT 15/15 A3003 RMK A01 T01470147  RH  100%=      5-min Rain = 0
KWE2 230645Z 03010KT 15/15 A3003 RMK A01 T01470147  RH  100%=      5-min Rain = 0
KWE2 230646Z 04008KT 15/15 A3003 RMK A01 T01470147  RH  100%=      5-min Rain = 0
KWE2 230647Z 04008KT 15/15 A3003 RMK A01 T01470147  RH  100%=      5-min Rain = 0.01
KWE2 230648Z 04008KT 15/15 A3003 RMK A01 T01470147  RH  100%=      5-min Rain = 0
KWE2 230649Z 04009KT 15/15 A3003 RMK A01 T01460146  RH  100%=      5-min Rain = 0
KWE2 230650Z 04009KT 15/15 A3003 RMK A01 T01460147  RH  100%=      5-min Rain = 0
KWE2 230651Z 04012KT 15/15 A3003 RMK A01 T01470147  RH  100%=      5-min Rain = 0
KWE2 230652Z 04011KT 15/15 A3002 RMK A01 T01460147  RH  100%=      5-min Rain = 0
KWE2 230653Z 05012KT 15/15 A3002 RMK A01 T01460147  RH  100%=      5-min Rain = 0
KWE2 230654Z 04009KT 15/15 A3002 RMK A01 T01460146  RH  100%=      5-min Rain = 0
KWE2 230655Z 04012KT 15/15 A3002 RMK A01 T01460147  RH  100%=      5-min Rain = 0
KWE2 230656Z 04009KT 15/15 A3002 RMK A01 T01460147  RH  100%=      5-min Rain = 0
KWE2 230657Z 04009KT 15/15 A3003 RMK A01 T01460147  RH  100%=      5-min Rain = 0
KWE2 230658Z 04008KT 15/15 A3003 RMK A01 T01460146  RH  100%=      5-min Rain = 0
KWE2 230659Z 05010KT 15/15 A3003 RMK A01 T01460146  RH  100%=      5-min Rain = 0
KWE2 230700Z 03007KT 15/15 A3003 RMK A01 T01470147  RH  100%=      5-min Rain = 0
KWE2 230701Z 03008KT 15/15 A3003 RMK A01 T01470147  RH  100%=      5-min Rain = 0
KWE2 230702Z 03007KT 15/15 A3003 RMK A01 T01460147  RH  100%=      5-min Rain = 0
KWE2 230703Z 04008KT 15/15 A3003 RMK A01 T01460147  RH  100%=      5-min Rain = 0
KWE2 230704Z 03007KT 15/15 A3003 RMK A01 T01460146  RH  100%=      5-min Rain = 0
KWE2 230705Z 04007KT 15/15 A3003 RMK A01 T01470147  RH  100%=      5-min Rain = 0
KWE2 230706Z 03007KT 15/15 A3003 RMK A01 T01460147  RH  100%=      5-min Rain = 0
KWE2 230707Z 04007KT 15/15 A3002 RMK A01 T01460147  RH  100%=      5-min Rain = 0
KWE2 230708Z 04009KT 15/15 A3002 RMK A01 T01470147  RH  100%=      5-min Rain = 0
KWE2 230709Z 03008KT 15/15 A3002 RMK A01 T01460147  RH  100%=      5-min Rain = 0
KWE2 230710Z 03007KT 15/15 A3002 RMK A01 T01460146  RH  100%=      5-min Rain = 0
KWE2 230711Z 04007KT 15/15 A3003 RMK A01 T01470147  RH  100%=      5-min Rain = 0
KWE2 230712Z 04008KT 15/15 A3003 RMK A01 T01460146  RH  100%=      5-min Rain = 0
KWE2 230713Z 05008KT 15/15 A3003 RMK A01 T01460146  RH  100%=      5-min Rain = 0
KWE2 230714Z 05008KT 15/15 A3003 RMK A01 T01460146  RH  100%=      5-min Rain = 0
KWE2 230715Z 04010KT 15/15 A3002 RMK A01 T01460146  RH  100%=      5-min Rain = 0.01
KWE2 230716Z 05010KT 15/15 A3002 RMK A01 T01460146  RH  100%=      5-min Rain = 0
KWE2 230717Z 04009KT 15/15 A3002 RMK A01 T01460146  RH  100%=      5-min Rain = 0
KWE2 230718Z 04008KT 15/15 A3002 RMK A01 T01460146  RH  100%=      5-min Rain = 0
KWE2 230719Z 04007KT 15/15 A3002 RMK A01 T01460146  RH  100%=      5-min Rain = 0
KWE2 230720Z 04007KT 15/15 A3002 RMK A01 T01460146  RH  100%=      5-min Rain = 0
KWE2 230721Z 03009KT 15/15 A3002 RMK A01 T01460146  RH  100%=      5-min Rain = 0
KWE2 230722Z 04009KT 15/15 A3002 RMK A01 T01460146  RH  100%=      5-min Rain = 0
KWE2 230723Z 03008KT 15/15 A3002 RMK A01 T01460146  RH  100%=      5-min Rain = 0
KWE2 230724Z 05009KT 15/15 A3002 RMK A01 T01450145  RH  100%=      5-min Rain = 0.01
KWE2 230725Z 04009KT 15/15 A3002 RMK A01 T01450145  RH  100%=      5-min Rain = 0
KWE2 230726Z 05009KT 15/15 A3002 RMK A01 T01450145  RH  100%=      5-min Rain = 0
KWE2 230727Z 04010KT 15/15 A3002 RMK A01 T01450145  RH  100%=      5-min Rain = 0
KWE2 230728Z 04008KT 14/14 A3002 RMK A01 T01440144  RH  100%=      5-min Rain = 0
KWE2 230729Z 05007KT 14/14 A3002 RMK A01 T01440144  RH  100%=      5-min Rain = 0
KWE2 230730Z 05007KT 14/14 A3002 RMK A01 T01440144  RH  100%=      5-min Rain = 0
KWE2 230731Z 04008KT 14/14 A3002 RMK A01 T01440144  RH  100%=      5-min Rain = 0
KWE2 230732Z 05008KT 14/14 A3002 RMK A01 T01440144  RH  100%=      5-min Rain = 0
KWE2 230733Z 04007KT 14/14 A3002 RMK A01 T01440144  RH  100%=      5-min Rain = 0
KWE2 230734Z 04007KT 14/14 A3002 RMK A01 T01440144  RH  100%=      5-min Rain = 0
KWE2 230735Z 05008KT 14/14 A3002 RMK A01 T01440144  RH  100%=      5-min Rain = 0
KWE2 230736Z 05007KT 14/14 A3003 RMK A01 T01440144  RH  100%=      5-min Rain = 0
KWE2 230737Z 05007KT 14/14 A3003 RMK A01 T01440144  RH  100%=      5-min Rain = 0
KWE2 230738Z 05007KT 14/14 A3003 RMK A01 T01440144  RH  100%=      5-min Rain = 0
KWE2 230739Z 05008KT 14/14 A3002 RMK A01 T01440144  RH  100%=      5-min Rain = 0
KWE2 230740Z 05010KT 14/14 A3002 RMK A01 T01440144  RH  100%=      5-min Rain = 0
KWE2 230741Z 05011KT 14/14 A3002 RMK A01 T01430143  RH  100%=      5-min Rain = 0.01
KWE2 230742Z 05011KT 14/14 A3001 RMK A01 T01430143  RH  100%=      5-min Rain = 0
KWE2 230743Z 04010KT 14/14 A30 RMK A01 T01430143  RH  100%=      5-min Rain = 0
KWE2 230744Z 04012KT 14/14 A30 RMK A01 T01430143  RH  100%=      5-min Rain = 0
KWE2 230745Z 04011KT 14/14 A2999 RMK A01 T01430143  RH  100%=      5-min Rain = 0
KWE2 230746Z 04010KT 14/14 A30 RMK A01 T01430143  RH  100%=      5-min Rain = 0
KWE2 230747Z 04008KT 14/14 A30 RMK A01 T01430143  RH  100%=      5-min Rain = 0
KWE2 230748Z 04006KT 14/14 A30 RMK A01 T01430143  RH  100%=      5-min Rain = 0
KWE2 230749Z 03006KT 14/14 A3001 RMK A01 T01430143  RH  100%=      5-min Rain = 0
KWE2 230750Z 03006KT 14/14 A3001 RMK A01 T01430143  RH  100%=      5-min Rain = 0
KWE2 230751Z 02007KT 14/14 A3001 RMK A01 T01430143  RH  100%=      5-min Rain = 0
KWE2 230752Z 03008KT 14/14 A3001 RMK A01 T01420143  RH  100%=      5-min Rain = 0
KWE2 230753Z 03009KT 14/14 A3001 RMK A01 T01420142  RH  100%=      5-min Rain = 0
KWE2 230754Z 03008KT 14/14 A3001 RMK A01 T01420142  RH  100%=      5-min Rain = 0
KWE2 230755Z 03008KT 14/14 A3001 RMK A01 T01420142  RH  100%=      5-min Rain = 0
KWE2 230756Z 03010KT 14/14 A3002 RMK A01 T01420142  RH  100%=      5-min Rain = 0
KWE2 230757Z 03009KT 14/14 A3002 RMK A01 T01420142  RH  100%=      5-min Rain = 0
KWE2 230758Z 02009KT 14/14 A3002 RMK A01 T01410141  RH  100%=      5-min Rain = 0
KWE2 230759Z 03010KT 14/14 A3002 RMK A01 T01410142  RH  100%=      5-min Rain = 0
KWE2 230800Z 03010KT 14/14 A3002 RMK A01 T01410141  RH  100%=      5-min Rain = 0
KWE2 230801Z 03011KT 14/14 A3002 RMK A01 T01410141  RH  100%=      5-min Rain = 0
KWE2 230802Z 03009KT 14/14 A3001 RMK A01 T01400141  RH  100%=      5-min Rain = 0
KWE2 230803Z 02010KT 14/14 A3001 RMK A01 T01400140  RH  100%=      5-min Rain = 0
KWE2 230804Z 02010KT 14/14 A3002 RMK A01 T01410141  RH  100%=      5-min Rain = 0
KWE2 230805Z 01010KT 14/14 A3002 RMK A01 T01400141  RH  100%=      5-min Rain = 0
KWE2 230806Z 01009KT 14/14 A3002 RMK A01 T01410141  RH  100%=      5-min Rain = 0
KWE2 230807Z 36009KT 14/14 A3002 RMK A01 T01410141  RH  100%=      5-min Rain = 0
KWE2 230808Z 36009KT 14/14 A3003 RMK A01 T01410141  RH  100%=      5-min Rain = 0
KWE2 230809Z 34009KT 14/14 A3003 RMK A01 T01410141  RH  100%=      5-min Rain = 0.01
KWE2 230810Z 34010KT 14/14 A3003 RMK A01 T01410142  RH  100%=      5-min Rain = 0
KWE2 230811Z 34009KT 14/14 A3003 RMK A01 T01420142  RH  100%=      5-min Rain = 0
KWE2 230812Z 34008KT 14/14 A3003 RMK A01 T01420142  RH  100%=      5-min Rain = 0.02
KWE2 230813Z 34009KT 14/14 A3003 RMK A01 T01410141  RH  100%=      5-min Rain = 0.01
KWE2 230814Z 35010KT 14/14 A3003 RMK A01 T01410141  RH  100%=      5-min Rain = 0.03
KWE2 230815Z 35012KT 14/14 A3003 RMK A01 T01400140  RH  100%=      5-min Rain = 0.02
KWE2 230816Z 35011KT 14/14 A3003 RMK A01 T01390139  RH  100%=      5-min Rain = 0.02
KWE2 230817Z 35011KT 14/14 A3003 RMK A01 T01380138  RH  100%=      5-min Rain = 0
KWE2 230818Z 35010KT 14/14 A3003 RMK A01 T01380138  RH  100%=      5-min Rain = 0.03
KWE2 230819Z 34010KT 14/14 A3003 RMK A01 T01380138  RH  100%=      5-min Rain = 0.04
KWE2 230820Z 35009KT 14/14 A3003 RMK A01 T01380138  RH  100%=      5-min Rain = 0.03
KWE2 230821Z 35011KT 14/14 A3003 RMK A01 T01380138  RH  100%=      5-min Rain = 0.01
KWE2 230822Z 35010KT 14/14 A3003 RMK A01 T01380138  RH  100%=      5-min Rain = 0.01
KWE2 230823Z 35010KT 14/14 A3003 RMK A01 T01380138  RH  100%=      5-min Rain = 0
KWE2 230824Z 34014KT 14/14 A3003 RMK A01 T01380138  RH  100%=      5-min Rain = 0.01
KWE2 230825Z 35014KT 14/14 A3003 RMK A01 T01370137  RH  100%=      5-min Rain = 0
KWE2 230826Z 36011KT 14/14 A3003 RMK A01 T01370137  RH  100%=      5-min Rain = 0.01
KWE2 230827Z 01010KT 14/14 A3003 RMK A01 T01370137  RH  100%=      5-min Rain = 0
KWE2 230828Z 01012KT 14/14 A3003 RMK A01 T01370137  RH  100%=      5-min Rain = 0.01
KWE2 230829Z 02011KT 14/14 A3002 RMK A01 T01360137  RH  100%=      5-min Rain = 0
KWE2 230830Z 02009KT 14/14 A3002 RMK A01 T01370137  RH  100%=      5-min Rain = 0
KWE2 230831Z 02008KT 14/14 A3002 RMK A01 T01360136  RH  100%=      5-min Rain = 0
KWE2 230832Z 03009KT 14/14 A3002 RMK A01 T01360136  RH  100%=      5-min Rain = 0
KWE2 230833Z 03010KT 14/14 A3002 RMK A01 T01360136  RH  100%=      5-min Rain = 0.01
KWE2 230834Z 03009KT 14/14 A3002 RMK A01 T01350136  RH  100%=      5-min Rain = 0
KWE2 230835Z 03008KT 14/14 A3002 RMK A01 T01350135  RH  100%=      5-min Rain = 0
KWE2 230836Z 04008KT 14/14 A3002 RMK A01 T01350136  RH  100%=      5-min Rain = 0
KWE2 230837Z 04007KT 14/14 A3002 RMK A01 T01350136  RH  100%=      5-min Rain = 0
KWE2 230838Z 04008G14KT 14/14 A3002 RMK A01 T01350135  RH  100%=      5-min Rain = 0
KWE2 230839Z 05009KT 14/14 A3002 RMK A01 T01350135  RH  100%=      5-min Rain = 0
KWE2 230840Z 05010KT 14/14 A3002 RMK A01 T01350135  RH  100%=      5-min Rain = 0
KWE2 230841Z 05008KT 14/14 A3002 RMK A01 T01350135  RH  100%=      5-min Rain = 0
KWE2 230842Z 06008KT 14/14 A3002 RMK A01 T01350135  RH  100%=      5-min Rain = 0
KWE2 230843Z 04006KT 14/14 A3002 RMK A01 T01350135  RH  100%=      5-min Rain = 0
KWE2 230844Z 03006KT 14/14 A3002 RMK A01 T01350135  RH  100%=      5-min Rain = 0
KWE2 230845Z 03007KT 14/14 A3002 RMK A01 T01350135  RH  100%=      5-min Rain = 0
KWE2 230846Z 03006KT 14/14 A3002 RMK A01 T01350135  RH  100%=      5-min Rain = 0
KWE2 230847Z 03007KT 14/14 A3002 RMK A01 T01350135  RH  100%=      5-min Rain = 0
KWE2 230848Z 04005KT 14/14 A3002 RMK A01 T01350135  RH  100%=      5-min Rain = 0
KWE2 230849Z 04004KT 14/14 A3002 RMK A01 T01350135  RH  100%=      5-min Rain = 0
KWE2 230850Z 04005KT 14/14 A3002 RMK A01 T01350135  RH  100%=      5-min Rain = 0
KWE2 230851Z 03005KT 14/14 A3002 RMK A01 T01350136  RH  100%=      5-min Rain = 0
KWE2 230852Z 03008KT 14/14 A3002 RMK A01 T01350136  RH  100%=      5-min Rain = 0
KWE2 230853Z 03009KT 14/14 A3002 RMK A01 T01350136  RH  100%=      5-min Rain = 0
KWE2 230854Z 03009KT 14/14 A3002 RMK A01 T01350136  RH  100%=      5-min Rain = 0
KWE2 230855Z 02006KT 14/14 A3002 RMK A01 T01360136  RH  100%=      5-min Rain = 0
KWE2 230856Z 03009KT 14/14 A3002 RMK A01 T01360136  RH  100%=      5-min Rain = 0
KWE2 230857Z 03008KT 14/14 A3002 RMK A01 T01360136  RH  100%=      5-min Rain = 0
KWE2 230858Z 03009KT 14/14 A3002 RMK A01 T01360136  RH  100%=      5-min Rain = 0
KWE2 230859Z 04009KT 14/14 A3002 RMK A01 T01360136  RH  100%=      5-min Rain = 0
KWE2 230900Z 04008KT 14/14 A3002 RMK A01 T01360136  RH  100%=      5-min Rain = 0
KWE2 230901Z 04009KT 14/14 A3002 RMK A01 T01360136  RH  100%=      5-min Rain = 0
KWE2 230902Z 04008KT 14/14 A3002 RMK A01 T01360136  RH  100%=      5-min Rain = 0
KWE2 230903Z 04008KT 14/14 A3002 RMK A01 T01360136  RH  100%=      5-min Rain = 0
KWE2 230904Z 04007KT 14/14 A3002 RMK A01 T01360136  RH  100%=      5-min Rain = 0
KWE2 230905Z 04007KT 14/14 A3002 RMK A01 T01360136  RH  100%=      5-min Rain = 0
KWE2 230906Z 03009KT 14/14 A3002 RMK A01 T01350135  RH  100%=      5-min Rain = 0
KWE2 230907Z 03008KT 14/14 A3002 RMK A01 T01350135  RH  100%=      5-min Rain = 0
KWE2 230908Z 03008KT 14/14 A3003 RMK A01 T01350136  RH  100%=      5-min Rain = 0
KWE2 230909Z 02009KT 14/14 A3003 RMK A01 T01360136  RH  100%=      5-min Rain = 0
KWE2 230910Z 00009KT 14/14 A3003 RMK A01 T01360136  RH  100%=      5-min Rain = 0
KWE2 230911Z 00008KT 14/14 A3003 RMK A01 T01360136  RH  100%=      5-min Rain = 0
KWE2 230912Z 00008KT 14/14 A3003 RMK A01 T01360136  RH  100%=      5-min Rain = 0
KWE2 230913Z 00008KT 14/14 A3003 RMK A01 T01360136  RH  100%=      5-min Rain = 0
KWE2 230914Z 35009KT 14/14 A3003 RMK A01 T01370137  RH  100%=      5-min Rain = 0
KWE2 230915Z 35008KT 14/14 A3003 RMK A01 T01360137  RH  100%=      5-min Rain = 0
KWE2 230916Z 35006KT 14/14 A3003 RMK A01 T01360137  RH  100%=      5-min Rain = 0
KWE2 230917Z 36006KT 14/14 A3003 RMK A01 T01360137  RH  100%=      5-min Rain = 0
KWE2 230918Z 35007KT 14/14 A3003 RMK A01 T01360136  RH  100%=      5-min Rain = 0
KWE2 230919Z 35008KT 14/14 A3003 RMK A01 T01360137  RH  100%=      5-min Rain = 0
KWE2 230920Z 34008KT 14/14 A3003 RMK A01 T01360136  RH  100%=      5-min Rain = 0
KWE2 230921Z 34008KT 14/14 A3003 RMK A01 T01370136  RH  100%=      5-min Rain = 0
KWE2 230922Z 34008KT 14/14 A3003 RMK A01 T01370136  RH  099%=      5-min Rain = 0
KWE2 230923Z 34009KT 14/14 A3002 RMK A01 T01370136  RH  099%=      5-min Rain = 0
KWE2 230924Z 35008KT 14/14 A3002 RMK A01 T01370136  RH  099%=      5-min Rain = 0
KWE2 230925Z 34008KT 14/14 A3002 RMK A01 T01370137  RH  100%=      5-min Rain = 0
KWE2 230926Z 34009KT 14/14 A3002 RMK A01 T01380138  RH  100%=      5-min Rain = 0
KWE2 230927Z 35010KT 14/14 A3002 RMK A01 T01370137  RH  100%=      5-min Rain = 0
KWE2 230928Z 35010KT 14/14 A3002 RMK A01 T01370135  RH  099%=      5-min Rain = 0
KWE2 230929Z 35011KT 14/14 A3002 RMK A01 T01370135  RH  099%=      5-min Rain = 0
KWE2 230930Z 34012KT 14/14 A3002 RMK A01 T01370135  RH  099%=      5-min Rain = 0
KWE2 230931Z 35012KT 14/13 A3002 RMK A01 T01360134  RH  099%=      5-min Rain = 0
KWE2 230932Z 35013KT 14/14 A3002 RMK A01 T01360135  RH  099%=      5-min Rain = 0
KWE2 230933Z 35013KT 14/14 A3001 RMK A01 T01360135  RH  099%=      5-min Rain = 0
KWE2 230934Z 35011KT 14/14 A3002 RMK A01 T01360135  RH  099%=      5-min Rain = 0
KWE2 230935Z 35011KT 14/14 A3002 RMK A01 T01360136  RH  100%=      5-min Rain = 0
KWE2 230936Z 35011KT 14/14 A3002 RMK A01 T01360136  RH  100%=      5-min Rain = 0
KWE2 230937Z 36013KT 14/14 A3001 RMK A01 T01360136  RH  100%=      5-min Rain = 0
KWE2 230938Z 00014KT 14/14 A3001 RMK A01 T01360136  RH  100%=      5-min Rain = 0
KWE2 230939Z 00013KT 14/14 A3001 RMK A01 T01350135  RH  100%=      5-min Rain = 0
KWE2 230940Z 00013KT 14/14 A3001 RMK A01 T01350135  RH  100%=      5-min Rain = 0
KWE2 230941Z 00012KT 14/14 A3001 RMK A01 T01350135  RH  100%=      5-min Rain = 0
KWE2 230942Z 00013KT 14/14 A3001 RMK A01 T01350135  RH  100%=      5-min Rain = 0
KWE2 230943Z 01010KT 14/14 A3001 RMK A01 T01350135  RH  100%=      5-min Rain = 0
KWE2 230944Z 01009KT 14/14 A3001 RMK A01 T01350135  RH  100%=      5-min Rain = 0
KWE2 230945Z 01012KT 14/14 A3001 RMK A01 T01350135  RH  100%=      5-min Rain = 0
KWE2 230946Z 01011KT 14/14 A3002 RMK A01 T01350135  RH  100%=      5-min Rain = 0
KWE2 230947Z 01011KT 14/14 A3002 RMK A01 T01350135  RH  100%=      5-min Rain = 0
KWE2 230948Z 01011KT 14/14 A3002 RMK A01 T01350135  RH  100%=      5-min Rain = 0
KWE2 230949Z 01012KT 14/14 A3002 RMK A01 T01350135  RH  100%=      5-min Rain = 0
KWE2 230950Z 02011KT 13/13 A3002 RMK A01 T01340134  RH  100%=      5-min Rain = 0
KWE2 230951Z 02009KT 14/14 A3002 RMK A01 T01350135  RH  100%=      5-min Rain = 0
KWE2 230952Z 02009KT 14/14 A3002 RMK A01 T01350135  RH  100%=      5-min Rain = 0
KWE2 230953Z 02009KT 13/13 A3002 RMK A01 T01340134  RH  100%=      5-min Rain = 0
KWE2 230954Z 02009KT 13/13 A3002 RMK A01 T01340134  RH  100%=      5-min Rain = 0
KWE2 230955Z 01008KT 13/13 A3002 RMK A01 T01340134  RH  100%=      5-min Rain = 0
KWE2 230956Z 01010KT 13/13 A3003 RMK A01 T01340134  RH  100%=      5-min Rain = 0
KWE2 230957Z 01010KT 13/13 A3003 RMK A01 T01340134  RH  100%=      5-min Rain = 0
KWE2 230958Z 02010KT 13/13 A3003 RMK A01 T01340134  RH  100%=      5-min Rain = 0
KWE2 230959Z 01008KT 13/13 A3003 RMK A01 T01340134  RH  100%=      5-min Rain = 0
KWE2 231000Z 02008KT 13/13 A3003 RMK A01 T01340134  RH  100%=      5-min Rain = 0
KWE2 231001Z 01008KT 13/13 A3003 RMK A01 T01340134  RH  100%=      5-min Rain = 0
KWE2 231002Z 02009KT 13/13 A3003 RMK A01 T01340134  RH  100%=      5-min Rain = 0
KWE2 231003Z 02010KT 13/13 A3003 RMK A01 T01340134  RH  100%=      5-min Rain = 0
KWE2 231004Z 02010KT 13/13 A3003 RMK A01 T01340134  RH  100%=      5-min Rain = 0
KWE2 231005Z 02010KT 13/13 A3003 RMK A01 T01340134  RH  100%=      5-min Rain = 0
KWE2 231006Z 02011KT 13/13 A3003 RMK A01 T01340134  RH  100%=      5-min Rain = 0
KWE2 231007Z 02011KT 13/13 A3003 RMK A01 T01340134  RH  100%=      5-min Rain = 0
KWE2 231008Z 02011KT 13/13 A3003 RMK A01 T01340134  RH  100%=      5-min Rain = 0
KWE2 231009Z 02010KT 13/13 A3003 RMK A01 T01340133  RH  100%=      5-min Rain = 0
KWE2 231010Z 01009KT 13/13 A3003 RMK A01 T01340134  RH  100%=      5-min Rain = 0
KWE2 231011Z 02009KT 13/13 A3003 RMK A01 T01340134  RH  100%=      5-min Rain = 0
KWE2 231012Z 02010KT 13/13 A3003 RMK A01 T01340134  RH  100%=      5-min Rain = 0
KWE2 231013Z 02011KT 13/13 A3003 RMK A01 T01340134  RH  100%=      5-min Rain = 0
KWE2 231014Z 02012KT 13/13 A3002 RMK A01 T01340133  RH  100%=      5-min Rain = 0
KWE2 231015Z 02011KT 13/13 A3002 RMK A01 T01340133  RH  100%=      5-min Rain = 0
KWE2 231016Z 02013KT 13/13 A3002 RMK A01 T01340133  RH  100%=      5-min Rain = 0
KWE2 231017Z 02013KT 13/13 A3002 RMK A01 T01340133  RH  100%=      5-min Rain = 0
KWE2 231018Z 02014KT 13/13 A3001 RMK A01 T01340133  RH  099%=      5-min Rain = 0
KWE2 231019Z 02013KT 13/13 A3001 RMK A01 T01330132  RH  099%=      5-min Rain = 0
KWE2 231020Z 03011KT 13/13 A3001 RMK A01 T01330132  RH  099%=      5-min Rain = 0
KWE2 231021Z 02009KT 13/13 A3001 RMK A01 T01330133  RH  100%=      5-min Rain = 0
KWE2 231022Z 02009KT 13/13 A3001 RMK A01 T01330133  RH  100%=      5-min Rain = 0
KWE2 231023Z 02009KT 13/13 A3001 RMK A01 T01330133  RH  100%=      5-min Rain = 0
KWE2 231024Z 01009KT 13/13 A3001 RMK A01 T01330133  RH  100%=      5-min Rain = 0
KWE2 231025Z 03012KT 13/13 A3001 RMK A01 T01330133  RH  100%=      5-min Rain = 0
KWE2 231026Z 02012KT 13/13 A3001 RMK A01 T01330133  RH  100%=      5-min Rain = 0
KWE2 231027Z 03012KT 13/13 A3001 RMK A01 T01330132  RH  100%=      5-min Rain = 0
KWE2 231028Z 03012KT 13/13 A3001 RMK A01 T01320132  RH  100%=      5-min Rain = 0
KWE2 231029Z 04010KT 13/13 A3001 RMK A01 T01320132  RH  100%=      5-min Rain = 0
KWE2 231030Z 04009KT 13/13 A3001 RMK A01 T01320132  RH  100%=      5-min Rain = 0
KWE2 231031Z 04009KT 13/13 A3001 RMK A01 T01320131  RH  100%=      5-min Rain = 0
KWE2 231032Z 03010KT 13/13 A3002 RMK A01 T01310131  RH  100%=      5-min Rain = 0
KWE2 231033Z 03009KT 13/13 A3002 RMK A01 T01310131  RH  100%=      5-min Rain = 0
KWE2 231034Z 03010KT 13/13 A3002 RMK A01 T01310130  RH  100%=      5-min Rain = 0
KWE2 231035Z 03008KT 13/13 A3002 RMK A01 T01310130  RH  100%=      5-min Rain = 0
KWE2 231036Z 04008KT 13/13 A3002 RMK A01 T01310131  RH  100%=      5-min Rain = 0
KWE2 231037Z 04010KT 13/13 A3002 RMK A01 T01310131  RH  100%=      5-min Rain = 0
KWE2 231038Z 04010KT 13/13 A3002 RMK A01 T01310131  RH  100%=      5-min Rain = 0
KWE2 231039Z 04010KT 13/13 A3002 RMK A01 T01310131  RH  100%=      5-min Rain = 0
KWE2 231040Z 03010KT 13/13 A3002 RMK A01 T01310130  RH  100%=      5-min Rain = 0
KWE2 231041Z 03010KT 13/13 A3002 RMK A01 T01310130  RH  100%=      5-min Rain = 0
KWE2 231042Z 04009KT 13/13 A3002 RMK A01 T01300130  RH  100%=      5-min Rain = 0
KWE2 231043Z 03008KT 13/13 A3002 RMK A01 T01300130  RH  100%=      5-min Rain = 0
KWE2 231044Z 04008KT 13/13 A3002 RMK A01 T01310131  RH  100%=      5-min Rain = 0
KWE2 231045Z 03011KT 13/13 A3002 RMK A01 T01300131  RH  100%=      5-min Rain = 0
KWE2 231046Z 04011KT 13/13 A3002 RMK A01 T01300130  RH  100%=      5-min Rain = 0
KWE2 231047Z 03011KT 13/13 A3002 RMK A01 T01310131  RH  100%=      5-min Rain = 0
KWE2 231048Z 03009KT 13/13 A3002 RMK A01 T01300130  RH  100%=      5-min Rain = 0
KWE2 231049Z 03009KT 13/13 A3002 RMK A01 T01300130  RH  100%=      5-min Rain = 0
KWE2 231050Z 03010KT 13/13 A3002 RMK A01 T01300130  RH  100%=      5-min Rain = 0
KWE2 231051Z 03009KT 13/13 A3002 RMK A01 T01300130  RH  100%=      5-min Rain = 0
KWE2 231052Z 03009KT 13/13 A3002 RMK A01 T01300130  RH  100%=      5-min Rain = 0
KWE2 231053Z 03009KT 13/13 A3002 RMK A01 T01300130  RH  100%=      5-min Rain = 0
KWE2 231054Z 03009KT 13/13 A3002 RMK A01 T01300130  RH  100%=      5-min Rain = 0
KWE2 231055Z 03009KT 13/13 A3002 RMK A01 T01300130  RH  100%=      5-min Rain = 0
KWE2 231056Z 03010KT 13/13 A3002 RMK A01 T01300130  RH  100%=      5-min Rain = 0
KWE2 231057Z 03012KT 13/13 A3002 RMK A01 T01300130  RH  100%=      5-min Rain = 0
KWE2 231058Z 03009KT 13/13 A3002 RMK A01 T01300130  RH  100%=      5-min Rain = 0
KWE2 231059Z 03009KT 13/13 A3002 RMK A01 T01300131  RH  100%=      5-min Rain = 0
KWE2 231100Z 03008KT 13/13 A3002 RMK A01 T01310131  RH  100%=      5-min Rain = 0
KWE2 231101Z 04009KT 13/13 A3002 RMK A01 T01300131  RH  100%=      5-min Rain = 0
KWE2 231102Z 03009KT 13/13 A3002 RMK A01 T01300131  RH  100%=      5-min Rain = 0
KWE2 231103Z 04008KT 13/13 A3002 RMK A01 T01300130  RH  100%=      5-min Rain = 0
KWE2 231104Z 04008KT 13/13 A3002 RMK A01 T01300131  RH  100%=      5-min Rain = 0
KWE2 231105Z 03007KT 13/13 A3002 RMK A01 T01300131  RH  100%=      5-min Rain = 0
KWE2 231106Z 03007KT 13/13 A3002 RMK A01 T01310131  RH  100%=      5-min Rain = 0
KWE2 231107Z 03007KT 13/13 A3002 RMK A01 T01310131  RH  100%=      5-min Rain = 0
KWE2 231108Z 03008KT 13/13 A3002 RMK A01 T01310131  RH  100%=      5-min Rain = 0
KWE2 231109Z 03008KT 13/13 A3003 RMK A01 T01310131  RH  100%=      5-min Rain = 0
KWE2 231110Z 04008KT 13/13 A3003 RMK A01 T01310131  RH  100%=      5-min Rain = 0
KWE2 231111Z 04008KT 13/13 A3003 RMK A01 T01310131  RH  100%=      5-min Rain = 0
KWE2 231112Z 04009KT 13/13 A3003 RMK A01 T01310132  RH  100%=      5-min Rain = 0
KWE2 231113Z 04009KT 13/13 A3002 RMK A01 T01310131  RH  100%=      5-min Rain = 0
KWE2 231114Z 04008KT 13/13 A3002 RMK A01 T01310131  RH  100%=      5-min Rain = 0
KWE2 231115Z 04009KT 13/13 A3002 RMK A01 T01310131  RH  100%=      5-min Rain = 0
KWE2 231116Z 04008KT 13/13 A3002 RMK A01 T01320131  RH  100%=      5-min Rain = 0
KWE2 231117Z 03008KT 13/13 A3002 RMK A01 T01310131  RH  100%=      5-min Rain = 0
KWE2 231118Z 04008KT 13/13 A3002 RMK A01 T01310131  RH  100%=      5-min Rain = 0
KWE2 231119Z 04008KT 13/13 A3002 RMK A01 T01310131  RH  100%=      5-min Rain = 0
KWE2 231120Z 03007KT 13/13 A3002 RMK A01 T01310131  RH  100%=      5-min Rain = 0
KWE2 231121Z 01008KT 13/13 A3003 RMK A01 T01310131  RH  100%=      5-min Rain = 0
KWE2 231122Z 01009KT 13/13 A3003 RMK A01 T01320132  RH  100%=      5-min Rain = 0
KWE2 231123Z 01008KT 13/13 A3003 RMK A01 T01320132  RH  100%=      5-min Rain = 0
KWE2 231124Z 01008KT 13/13 A3004 RMK A01 T01320131  RH  100%=      5-min Rain = 0
KWE2 231125Z 01008KT 13/13 A3004 RMK A01 T01320132  RH  100%=      5-min Rain = 0
KWE2 231126Z 01007KT 13/13 A3004 RMK A01 T01320131  RH  099%=      5-min Rain = 0
KWE2 231127Z 02008KT 13/13 A3004 RMK A01 T01330132  RH  100%=      5-min Rain = 0
KWE2 231128Z 01008KT 13/13 A3004 RMK A01 T01330131  RH  099%=      5-min Rain = 0
KWE2 231129Z 00009KT 13/13 A3004 RMK A01 T01330131  RH  099%=      5-min Rain = 0
KWE2 231130Z 00009KT 13/13 A3004 RMK A01 T01330132  RH  099%=      5-min Rain = 0
KWE2 231131Z 00009KT 13/13 A3004 RMK A01 T01330132  RH  099%=      5-min Rain = 0
KWE2 231132Z 00010KT 13/13 A3004 RMK A01 T01330132  RH  099%=      5-min Rain = 0
KWE2 231133Z 00010KT 13/13 A3004 RMK A01 T01330132  RH  099%=      5-min Rain = 0
KWE2 231134Z 36010KT 13/13 A3004 RMK A01 T01330132  RH  099%=      5-min Rain = 0
KWE2 231135Z 35011KT 13/13 A3004 RMK A01 T01330132  RH  099%=      5-min Rain = 0
KWE2 231136Z 35012KT 13/13 A3004 RMK A01 T01330132  RH  099%=      5-min Rain = 0
KWE2 231137Z 35012KT 13/13 A3004 RMK A01 T01330132  RH  099%=      5-min Rain = 0
KWE2 231138Z 35013KT 13/13 A3003 RMK A01 T01330133  RH  099%=      5-min Rain = 0
KWE2 231139Z 36014KT 13/13 A3003 RMK A01 T01330133  RH  099%=      5-min Rain = 0
KWE2 231140Z 36014KT 13/13 A3003 RMK A01 T01330133  RH  100%=      5-min Rain = 0
KWE2 231141Z 01016KT 13/13 A3002 RMK A01 T01330132  RH  100%=      5-min Rain = 0
KWE2 231142Z 01015KT 13/13 A3002 RMK A01 T01320132  RH  100%=      5-min Rain = 0.01
KWE2 231143Z 01016KT 13/13 A3001 RMK A01 T01320132  RH  100%=      5-min Rain = 0
KWE2 231144Z 01015KT 13/13 A3002 RMK A01 T01320132  RH  100%=      5-min Rain = 0
KWE2 231145Z 00013KT 13/13 A3002 RMK A01 T01320132  RH  100%=      5-min Rain = 0
KWE2 231146Z 36012KT 13/13 A3003 RMK A01 T01320132  RH  100%=      5-min Rain = 0
KWE2 231147Z 35013KT 13/13 A3003 RMK A01 T01310131  RH  100%=      5-min Rain = 0
KWE2 231148Z 35014KT 13/13 A3004 RMK A01 T01310131  RH  100%=      5-min Rain = 0
KWE2 231149Z 35011KT 13/13 A3004 RMK A01 T01310131  RH  100%=      5-min Rain = 0
KWE2 231150Z 35012KT 13/13 A3004 RMK A01 T01320131  RH  100%=      5-min Rain = 0
KWE2 231151Z 35012KT 13/13 A3004 RMK A01 T01310131  RH  100%=      5-min Rain = 0
KWE2 231152Z 35011KT 13/13 A3004 RMK A01 T01310131  RH  100%=      5-min Rain = 0
KWE2 231153Z 35012KT 13/13 A3004 RMK A01 T01310131  RH  100%=      5-min Rain = 0
KWE2 231154Z 35014KT 13/13 A3004 RMK A01 T01310131  RH  100%=      5-min Rain = 0.01
KWE2 231155Z 35016KT 13/13 A3003 RMK A01 T01310131  RH  100%=      5-min Rain = 0
KWE2 231156Z 35018KT 13/13 A3003 RMK A01 T01310131  RH  100%=      5-min Rain = 0
KWE2 231157Z 35018KT 13/13 A3002 RMK A01 T01300130  RH  100%=      5-min Rain = 0.01
KWE2 231158Z 36018KT 13/13 A3002 RMK A01 T01300130  RH  100%=      5-min Rain = 0
KWE2 231159Z 00020KT 13/13 A3001 RMK A01 T01300130  RH  100%=      5-min Rain = 0
KWE2 231200Z 01020KT 13/13 A30 RMK A01 T01290130  RH  100%=      5-min Rain = 0
KWE2 231201Z 01020KT 13/13 A2999 RMK A01 T01290129  RH  100%=      5-min Rain = 0.01
KWE2 231202Z 01020KT 13/13 A2999 RMK A01 T01290129  RH  100%=      5-min Rain = 0
KWE2 231203Z 01020KT 13/13 A2999 RMK A01 T01290129  RH  100%=      5-min Rain = 0
KWE2 231204Z 01016KT 13/13 A30 RMK A01 T01290129  RH  100%=      5-min Rain = 0
KWE2 231205Z 35013KT 13/13 A3002 RMK A01 T01290129  RH  100%=      5-min Rain = 0
KWE2 231206Z 34014KT 13/13 A3003 RMK A01 T01290129  RH  100%=      5-min Rain = 0
KWE2 231207Z 33010KT 13/13 A3005 RMK A01 T01290129  RH  100%=      5-min Rain = 0
KWE2 231208Z 31009KT 13/13 A3006 RMK A01 T01290129  RH  100%=      5-min Rain = 0
KWE2 231209Z 30006KT 13/13 A3006 RMK A01 T01290129  RH  100%=      5-min Rain = 0
KWE2 231210Z 31005KT 13/13 A3006 RMK A01 T01290129  RH  099%=      5-min Rain = 0
KWE2 231211Z 30005KT 13/13 A3006 RMK A01 T01300128  RH  099%=      5-min Rain = 0.01
KWE2 231212Z 31005KT 13/13 A3006 RMK A01 T01300128  RH  099%=      5-min Rain = 0
KWE2 231213Z 32005KT 13/13 A3006 RMK A01 T01300128  RH  099%=      5-min Rain = 0
KWE2 231214Z 32005KT 13/13 A3006 RMK A01 T01300128  RH  099%=      5-min Rain = 0
KWE2 231215Z 32006KT 13/13 A3006 RMK A01 T01300128  RH  099%=      5-min Rain = 0
KWE2 231216Z 31007KT 13/13 A3006 RMK A01 T01290128  RH  099%=      5-min Rain = 0
KWE2 231217Z 32007KT 13/13 A3006 RMK A01 T01300128  RH  099%=      5-min Rain = 0
KWE2 231218Z 32006KT 13/13 A3006 RMK A01 T01300128  RH  099%=      5-min Rain = 0
KWE2 231219Z 34007KT 13/13 A3006 RMK A01 T01300129  RH  099%=      5-min Rain = 0
KWE2 231220Z 34007KT 13/13 A3006 RMK A01 T01290129  RH  099%=      5-min Rain = 0
KWE2 231221Z 35010KT 13/13 A3006 RMK A01 T01290128  RH  099%=      5-min Rain = 0
KWE2 231222Z 35011KT 13/13 A3006 RMK A01 T01290127  RH  099%=      5-min Rain = 0
KWE2 231223Z 00010KT 13/13 A3005 RMK A01 T01290127  RH  099%=      5-min Rain = 0
KWE2 231224Z 02009KT 13/13 A3005 RMK A01 T01290127  RH  098%=      5-min Rain = 0
KWE2 231225Z 01008KT 13/13 A3005 RMK A01 T01290126  RH  098%=      5-min Rain = 0
KWE2 231226Z 02007KT 13/13 A3005 RMK A01 T01280126  RH  098%=      5-min Rain = 0
KWE2 231227Z 02009KT 13/13 A3005 RMK A01 T01280126  RH  098%=      5-min Rain = 0
KWE2 231228Z 03009KT 13/13 A3005 RMK A01 T01280125  RH  098%=      5-min Rain = 0
KWE2 231229Z 02010KT 13/13 A3005 RMK A01 T01280125  RH  098%=      5-min Rain = 0
KWE2 231230Z 03013KT 13/12 A3005 RMK A01 T01280124  RH  098%=      5-min Rain = 0
KWE2 231231Z 02013KT 13/12 A3004 RMK A01 T01280124  RH  098%=      5-min Rain = 0
KWE2 231232Z 02014KT 13/12 A3004 RMK A01 T01280124  RH  098%=      5-min Rain = 0
KWE2 231233Z 02014KT 13/13 A3003 RMK A01 T01280125  RH  098%=      5-min Rain = 0
KWE2 231234Z 02016KT 13/13 A3003 RMK A01 T01270125  RH  099%=      5-min Rain = 0
KWE2 231235Z 02017KT 13/13 A3003 RMK A01 T01270125  RH  099%=      5-min Rain = 0
KWE2 231236Z 02016KT 13/13 A3003 RMK A01 T01270125  RH  099%=      5-min Rain = 0
KWE2 231237Z 02017KT 13/13 A3003 RMK A01 T01270125  RH  099%=      5-min Rain = 0
KWE2 231238Z 01015KT 13/13 A3003 RMK A01 T01270125  RH  099%=      5-min Rain = 0
KWE2 231239Z 02016KT 13/13 A3003 RMK A01 T01270125  RH  099%=      5-min Rain = 0
KWE2 231240Z 02016KT 13/13 A3003 RMK A01 T01270125  RH  099%=      5-min Rain = 0
KWE2 231241Z 02013KT 13/13 A3003 RMK A01 T01270125  RH  099%=      5-min Rain = 0
KWE2 231242Z 02012KT 13/13 A3003 RMK A01 T01270125  RH  099%=      5-min Rain = 0
KWE2 231243Z 02013KT 13/13 A3003 RMK A01 T01270126  RH  099%=      5-min Rain = 0
KWE2 231244Z 02013KT 13/13 A3003 RMK A01 T01270126  RH  099%=      5-min Rain = 0
KWE2 231245Z 02012KT 13/13 A3003 RMK A01 T01270126  RH  099%=      5-min Rain = 0
KWE2 231246Z 02012KT 13/13 A3003 RMK A01 T01270126  RH  099%=      5-min Rain = 0
KWE2 231247Z 02012KT 13/13 A3003 RMK A01 T01260126  RH  099%=      5-min Rain = 0
KWE2 231248Z 02013KT 13/13 A3003 RMK A01 T01260126  RH  100%=      5-min Rain = 0
KWE2 231249Z 02011KT 13/13 A3003 RMK A01 T01260126  RH  100%=      5-min Rain = 0
KWE2 231250Z 02015KT 13/13 A3003 RMK A01 T01260126  RH  100%=      5-min Rain = 0
KWE2 231251Z 02014KT 13/13 A3003 RMK A01 T01260125  RH  100%=      5-min Rain = 0
KWE2 231252Z 03012KT 13/13 A3003 RMK A01 T01260125  RH  100%=      5-min Rain = 0
KWE2 231253Z 03012KT 13/13 A3003 RMK A01 T01260125  RH  099%=      5-min Rain = 0
KWE2 231254Z 02011KT 13/13 A3003 RMK A01 T01260125  RH  099%=      5-min Rain = 0
KWE2 231255Z 02013KT 13/13 A3003 RMK A01 T01260125  RH  099%=      5-min Rain = 0
KWE2 231256Z 02012KT 13/13 A3003 RMK A01 T01260125  RH  099%=      5-min Rain = 0
KWE2 231257Z 02012KT 13/13 A3003 RMK A01 T01260125  RH  099%=      5-min Rain = 0
KWE2 231258Z 02012KT 13/12 A3004 RMK A01 T01260124  RH  099%=      5-min Rain = 0
KWE2 231259Z 03010KT 13/13 A3004 RMK A01 T01270125  RH  099%=      5-min Rain = 0
KWE2 231300Z 02010KT 13/13 A3004 RMK A01 T01260125  RH  099%=      5-min Rain = 0
KWE2 231301Z 02010KT 13/13 A3004 RMK A01 T01260125  RH  099%=      5-min Rain = 0
KWE2 231302Z 02007KT 13/13 A3004 RMK A01 T01260125  RH  099%=      5-min Rain = 0
KWE2 231303Z 02009KT 13/13 A3004 RMK A01 T01260125  RH  099%=      5-min Rain = 0
KWE2 231304Z 02009KT 13/13 A3004 RMK A01 T01260125  RH  099%=      5-min Rain = 0
KWE2 231305Z 03008KT 13/13 A3004 RMK A01 T01260125  RH  099%=      5-min Rain = 0
KWE2 231306Z 03006KT 13/13 A3004 RMK A01 T01260125  RH  099%=      5-min Rain = 0
KWE2 231307Z 04006KT 13/13 A3004 RMK A01 T01260125  RH  099%=      5-min Rain = 0
KWE2 231308Z 04007KT 13/12 A3004 RMK A01 T01260124  RH  099%=      5-min Rain = 0
KWE2 231309Z 04007KT 13/12 A3004 RMK A01 T01260124  RH  099%=      5-min Rain = 0
KWE2 231310Z 06006KT 13/13 A3004 RMK A01 T01260125  RH  099%=      5-min Rain = 0
KWE2 231311Z 05006KT 13/12 A3004 RMK A01 T01260124  RH  099%=      5-min Rain = 0
KWE2 231312Z 05005KT 13/13 A3004 RMK A01 T01260125  RH  099%=      5-min Rain = 0
KWE2 231313Z 06007KT 13/13 A3005 RMK A01 T01260125  RH  099%=      5-min Rain = 0
KWE2 231314Z 06007KT 13/12 A3005 RMK A01 T01250124  RH  099%=      5-min Rain = 0
KWE2 231315Z 06005KT 13/12 A3005 RMK A01 T01250124  RH  099%=      5-min Rain = 0
KWE2 231316Z 07006KT 13/13 A3005 RMK A01 T01250125  RH  099%=      5-min Rain = 0
KWE2 231317Z 06007KT 13/12 A3005 RMK A01 T01250124  RH  099%=      5-min Rain = 0
KWE2 231318Z 06006KT 13/13 A3005 RMK A01 T01250125  RH  099%=      5-min Rain = 0
KWE2 231319Z 06005KT 13/13 A3005 RMK A01 T01250125  RH  100%=      5-min Rain = 0
KWE2 231320Z 06005KT 13/13 A3005 RMK A01 T01260125  RH  100%=      5-min Rain = 0
KWE2 231321Z 06006KT 13/13 A3006 RMK A01 T01250125  RH  100%=      5-min Rain = 0
KWE2 231322Z 06006KT 13/13 A3006 RMK A01 T01250125  RH  100%=      5-min Rain = 0
KWE2 231323Z 06005KT 13/13 A3006 RMK A01 T01250125  RH  100%=      5-min Rain = 0
KWE2 231324Z 06006KT 13/13 A3005 RMK A01 T01250125  RH  100%=      5-min Rain = 0
KWE2 231325Z 06006KT 13/13 A3005 RMK A01 T01250125  RH  100%=      5-min Rain = 0
KWE2 231326Z 06006KT 13/13 A3005 RMK A01 T01260126  RH  100%=      5-min Rain = 0
KWE2 231327Z 05006KT 13/13 A3005 RMK A01 T01260126  RH  100%=      5-min Rain = 0
KWE2 231328Z 05007KT 13/13 A3005 RMK A01 T01260126  RH  100%=      5-min Rain = 0
KWE2 231329Z 05008KT 13/13 A3005 RMK A01 T01260126  RH  100%=      5-min Rain = 0
KWE2 231330Z 04008KT 13/13 A3005 RMK A01 T01260126  RH  100%=      5-min Rain = 0
KWE2 231331Z 04009KT 13/13 A3005 RMK A01 T01270126  RH  100%=      5-min Rain = 0
KWE2 231332Z 04010KT 13/13 A3005 RMK A01 T01260126  RH  099%=      5-min Rain = 0
KWE2 231333Z 04008KT 13/13 A3005 RMK A01 T01270125  RH  099%=      5-min Rain = 0
KWE2 231334Z 05009KT 13/13 A3005 RMK A01 T01270126  RH  099%=      5-min Rain = 0
KWE2 231335Z 05009KT 13/13 A3005 RMK A01 T01270126  RH  099%=      5-min Rain = 0
KWE2 231336Z 04010KT 13/13 A3005 RMK A01 T01270126  RH  099%=      5-min Rain = 0
KWE2 231337Z 04009KT 13/13 A3005 RMK A01 T01270126  RH  099%=      5-min Rain = 0
KWE2 231338Z 05011KT 13/13 A3005 RMK A01 T01270126  RH  099%=      5-min Rain = 0
KWE2 231339Z 05010KT 13/13 A3005 RMK A01 T01270126  RH  099%=      5-min Rain = 0
KWE2 231340Z 05011KT 13/13 A3005 RMK A01 T01270126  RH  099%=      5-min Rain = 0
KWE2 231341Z 05011KT 13/13 A3005 RMK A01 T01280126  RH  099%=      5-min Rain = 0
KWE2 231342Z 05009KT 13/13 A3005 RMK A01 T01280126  RH  099%=      5-min Rain = 0
KWE2 231343Z 05010KT 13/13 A3005 RMK A01 T01280126  RH  099%=      5-min Rain = 0
KWE2 231344Z 05012KT 13/13 A3005 RMK A01 T01280126  RH  099%=      5-min Rain = 0
KWE2 231345Z 05009KT 13/13 A3005 RMK A01 T01280126  RH  099%=      5-min Rain = 0
KWE2 231346Z 04009KT 13/13 A3005 RMK A01 T01280127  RH  099%=      5-min Rain = 0
KWE2 231347Z 04010KT 13/13 A3005 RMK A01 T01280127  RH  099%=      5-min Rain = 0
KWE2 231348Z 04010KT 13/13 A3005 RMK A01 T01280127  RH  100%=      5-min Rain = 0
KWE2 231349Z 04010KT 13/13 A3005 RMK A01 T01280127  RH  100%=      5-min Rain = 0
KWE2 231350Z 04011KT 13/13 A3005 RMK A01 T01280128  RH  099%=      5-min Rain = 0
KWE2 231351Z 04012KT 13/13 A3005 RMK A01 T01280127  RH  099%=      5-min Rain = 0
KWE2 231352Z 04009KT 13/13 A3005 RMK A01 T01290127  RH  099%=      5-min Rain = 0
KWE2 231353Z 04011G17KT 13/13 A3004 RMK A01 T01290128  RH  099%=      5-min Rain = 0
KWE2 231354Z 04009KT 13/13 A3004 RMK A01 T01290128  RH  099%=      5-min Rain = 0
KWE2 231355Z 03011KT 13/13 A3004 RMK A01 T01290128  RH  099%=      5-min Rain = 0
KWE2 231356Z 04013KT 13/13 A3004 RMK A01 T01290128  RH  099%=      5-min Rain = 0
KWE2 231357Z 04011G16KT 13/13 A3004 RMK A01 T01290128  RH  099%=      5-min Rain = 0
KWE2 231358Z 04013KT 13/13 A3004 RMK A01 T01290128  RH  099%=      5-min Rain = 0
KWE2 231359Z 04014KT 13/13 A3004 RMK A01 T01290127  RH  099%=      5-min Rain = 0
KWE2 231400Z 03013KT 13/13 A3004 RMK A01 T01300128  RH  099%=      5-min Rain = 0
KWE2 231401Z 03012KT 13/13 A3004 RMK A01 T01300128  RH  099%=      5-min Rain = 0
KWE2 231402Z 03013KT 13/13 A3004 RMK A01 T01310129  RH  099%=      5-min Rain = 0
KWE2 231403Z 03014KT 13/13 A3004 RMK A01 T01310129  RH  099%=      5-min Rain = 0
KWE2 231404Z 03015KT 13/13 A3004 RMK A01 T01320129  RH  098%=      5-min Rain = 0
KWE2 231405Z 03015KT 13/13 A3004 RMK A01 T01310129  RH  098%=      5-min Rain = 0
KWE2 231406Z 03013KT 13/13 A3004 RMK A01 T01320129  RH  098%=      5-min Rain = 0
KWE2 231407Z 03016KT 13/13 A3004 RMK A01 T01330130  RH  098%=      5-min Rain = 0
KWE2 231408Z 04012G17KT 13/13 A3004 RMK A01 T01330129  RH  098%=      5-min Rain = 0
KWE2 231409Z 04013KT 13/13 A3004 RMK A01 T01330131  RH  098%=      5-min Rain = 0
KWE2 231410Z 03010KT 13/13 A3005 RMK A01 T01340132  RH  098%=      5-min Rain = 0
KWE2 231411Z 04015KT 14/13 A3005 RMK A01 T01350132  RH  098%=      5-min Rain = 0
KWE2 231412Z 04013KT 14/13 A3005 RMK A01 T01350131  RH  097%=      5-min Rain = 0
KWE2 231413Z 04013KT 14/13 A3005 RMK A01 T01350131  RH  097%=      5-min Rain = 0
KWE2 231414Z 04012KT 14/13 A3005 RMK A01 T01350130  RH  097%=      5-min Rain = 0
KWE2 231415Z 04012KT 14/13 A3005 RMK A01 T01350131  RH  098%=      5-min Rain = 0
KWE2 231416Z 04012KT 14/13 A3005 RMK A01 T01350132  RH  098%=      5-min Rain = 0
KWE2 231417Z 04015KT 14/13 A3005 RMK A01 T01350131  RH  097%=      5-min Rain = 0
KWE2 231418Z 04014KT 14/13 A3005 RMK A01 T01350130  RH  097%=      5-min Rain = 0
KWE2 231419Z 04012KT 14/13 A3005 RMK A01 T01350130  RH  097%=      5-min Rain = 0
KWE2 231420Z 04012KT 14/13 A3005 RMK A01 T01350130  RH  097%=      5-min Rain = 0
KWE2 231421Z 04013KT 14/13 A3005 RMK A01 T01350131  RH  098%=      5-min Rain = 0
KWE2 231422Z 04012KT 14/13 A3005 RMK A01 T01350131  RH  097%=      5-min Rain = 0
KWE2 231423Z 03011G17KT 14/13 A3005 RMK A01 T01350132  RH  098%=      5-min Rain = 0
KWE2 231424Z 04013KT 14/13 A3005 RMK A01 T01350131  RH  098%=      5-min Rain = 0
KWE2 231425Z 04013G19KT 13/13 A3005 RMK A01 T01340131  RH  098%=      5-min Rain = 0
KWE2 231426Z 05013KT 13/13 A3005 RMK A01 T01340130  RH  097%=      5-min Rain = 0
KWE2 231427Z 04012KT 13/13 A3006 RMK A01 T01340131  RH  098%=      5-min Rain = 0
KWE2 231428Z 04014KT 13/13 A3005 RMK A01 T01340130  RH  097%=      5-min Rain = 0
KWE2 231429Z 04013KT 13/13 A3006 RMK A01 T01330129  RH  097%=      5-min Rain = 0
KWE2 231430Z 04012KT 13/13 A3005 RMK A01 T01330129  RH  097%=      5-min Rain = 0
KWE2 231431Z 03011KT 13/13 A3005 RMK A01 T01330129  RH  097%=      5-min Rain = 0
KWE2 231432Z 04014KT 13/13 A3005 RMK A01 T01340130  RH  097%=      5-min Rain = 0
KWE2 231433Z 03013KT 13/13 A3005 RMK A01 T01340130  RH  097%=      5-min Rain = 0
KWE2 231434Z 03012KT 14/13 A3005 RMK A01 T01350130  RH  097%=      5-min Rain = 0
KWE2 231435Z 05014KT 14/13 A3005 RMK A01 T01350131  RH  097%=      5-min Rain = 0
KWE2 231436Z 05012KT 14/13 A3005 RMK A01 T01350130  RH  096%=      5-min Rain = 0
KWE2 231437Z 04009KT 14/13 A3005 RMK A01 T01360131  RH  097%=      5-min Rain = 0
KWE2 231438Z 04011KT 14/13 A3005 RMK A01 T01360133  RH  098%=      5-min Rain = 0
KWE2 231439Z 04011KT 14/13 A3005 RMK A01 T01370133  RH  097%=      5-min Rain = 0
KWE2 231440Z 04011G16KT 14/13 A3005 RMK A01 T01370132  RH  097%=      5-min Rain = 0
KWE2 231441Z 04011G17KT 14/13 A3006 RMK A01 T01370131  RH  096%=      5-min Rain = 0
KWE2 231442Z 04010KT 14/13 A3006 RMK A01 T01370132  RH  097%=      5-min Rain = 0
KWE2 231443Z 04010KT 14/13 A3006 RMK A01 T01370132  RH  097%=      5-min Rain = 0
KWE2 231444Z 04012G17KT 14/13 A3006 RMK A01 T01370132  RH  097%=      5-min Rain = 0
KWE2 231445Z 04013KT 14/13 A3006 RMK A01 T01370131  RH  096%=      5-min Rain = 0
KWE2 231446Z 04011KT 14/13 A3006 RMK A01 T01370130  RH  096%=      5-min Rain = 0
KWE2 231447Z 04010G15KT 14/13 A3006 RMK A01 T01370130  RH  096%=      5-min Rain = 0
KWE2 231448Z 03012KT 14/13 A3006 RMK A01 T01360131  RH  097%=      5-min Rain = 0
KWE2 231449Z 03013KT 14/13 A3005 RMK A01 T01370131  RH  096%=      5-min Rain = 0
KWE2 231450Z 04014KT 14/13 A3005 RMK A01 T01370130  RH  096%=      5-min Rain = 0
KWE2 231451Z 03011KT 14/13 A3005 RMK A01 T01370130  RH  096%=      5-min Rain = 0
KWE2 231452Z 03011KT 14/13 A3005 RMK A01 T01370132  RH  096%=      5-min Rain = 0
KWE2 231453Z 05010KT 14/13 A3005 RMK A01 T01380131  RH  096%=      5-min Rain = 0
KWE2 231454Z 05009KT 14/13 A3005 RMK A01 T01380133  RH  096%=      5-min Rain = 0
KWE2 231455Z 05010KT 14/13 A3005 RMK A01 T01390133  RH  097%=      5-min Rain = 0
KWE2 231456Z 05012KT 14/13 A3005 RMK A01 T01390131  RH  095%=      5-min Rain = 0
KWE2 231457Z 04010KT 14/13 A3005 RMK A01 T01390130  RH  095%=      5-min Rain = 0
KWE2 231458Z 04012KT 14/13 A3006 RMK A01 T01390130  RH  095%=      5-min Rain = 0
KWE2 231459Z 04012KT 14/13 A3006 RMK A01 T01390130  RH  094%=      5-min Rain = 0
KWE2 231500Z 03011KT 14/13 A3006 RMK A01 T01390131  RH  095%=      5-min Rain = 0
KWE2 231501Z 04011KT 14/13 A3006 RMK A01 T01400131  RH  095%=      5-min Rain = 0
KWE2 231502Z 04014KT 14/13 A3006 RMK A01 T01400130  RH  094%=      5-min Rain = 0
KWE2 231503Z 04012KT 14/13 A3006 RMK A01 T01400129  RH  093%=      5-min Rain = 0
KWE2 231504Z 03013KT 14/13 A3006 RMK A01 T01400130  RH  094%=      5-min Rain = 0
KWE2 231505Z 04013KT 14/13 A3006 RMK A01 T01400131  RH  094%=      5-min Rain = 0
KWE2 231506Z 03012KT 14/13 A3006 RMK A01 T01410131  RH  094%=      5-min Rain = 0
KWE2 231507Z 04010KT 14/13 A3006 RMK A01 T01410131  RH  094%=      5-min Rain = 0
KWE2 231508Z 05010KT 14/13 A3006 RMK A01 T01420132  RH  094%=      5-min Rain = 0
KWE2 231509Z 05007KT 14/13 A3006 RMK A01 T01420133  RH  095%=      5-min Rain = 0
KWE2 231510Z 04007KT 14/14 A3006 RMK A01 T01420135  RH  095%=      5-min Rain = 0
KWE2 231511Z 04009KT 14/14 A3006 RMK A01 T01430136  RH  095%=      5-min Rain = 0
KWE2 231512Z 05006KT 14/13 A3006 RMK A01 T01430134  RH  094%=      5-min Rain = 0
KWE2 231513Z 04008KT 14/14 A3006 RMK A01 T01440136  RH  095%=      5-min Rain = 0
KWE2 231514Z 04010KT 14/13 A3006 RMK A01 T01440134  RH  094%=      5-min Rain = 0
KWE2 231515Z 04010KT 14/13 A3006 RMK A01 T01440133  RH  093%=      5-min Rain = 0
KWE2 231516Z 03012KT 14/13 A3006 RMK A01 T01440133  RH  094%=      5-min Rain = 0
KWE2 231517Z 03010KT 14/13 A3006 RMK A01 T01440133  RH  093%=      5-min Rain = 0
KWE2 231518Z 03011KT 14/13 A3006 RMK A01 T01440133  RH  093%=      5-min Rain = 0
KWE2 231519Z 04010KT 14/13 A3007 RMK A01 T01440132  RH  093%=      5-min Rain = 0
KWE2 231520Z 05011KT 14/13 A3007 RMK A01 T01440130  RH  091%=      5-min Rain = 0
KWE2 231521Z 04011KT 14/13 A3007 RMK A01 T01430131  RH  093%=      5-min Rain = 0
KWE2 231522Z 04009KT 14/13 A3007 RMK A01 T01430130  RH  092%=      5-min Rain = 0
KWE2 231523Z 04009G14KT 14/13 A3007 RMK A01 T01420131  RH  093%=      5-min Rain = 0
KWE2 231524Z 04011KT 14/13 A3007 RMK A01 T01420131  RH  093%=      5-min Rain = 0
KWE2 231525Z 05009KT 14/13 A3007 RMK A01 T01420130  RH  093%=      5-min Rain = 0
KWE2 231526Z 05010KT 14/13 A3007 RMK A01 T01430131  RH  093%=      5-min Rain = 0
KWE2 231527Z 05007KT 14/13 A3007 RMK A01 T01430132  RH  093%=      5-min Rain = 0
KWE2 231528Z 05008KT 14/13 A3007 RMK A01 T01430132  RH  093%=      5-min Rain = 0
KWE2 231529Z 04010KT 14/13 A3007 RMK A01 T01430131  RH  093%=      5-min Rain = 0
KWE2 231530Z 04009KT 14/13 A3007 RMK A01 T01430132  RH  093%=      5-min Rain = 0
KWE2 231531Z 05007KT 14/13 A3007 RMK A01 T01430132  RH  093%=      5-min Rain = 0
KWE2 231532Z 05008KT 14/13 A3008 RMK A01 T01430132  RH  093%=      5-min Rain = 0
KWE2 231533Z 06009KT 14/13 A3008 RMK A01 T01430131  RH  093%=      5-min Rain = 0
KWE2 231534Z 06006KT 14/13 A3008 RMK A01 T01430132  RH  093%=      5-min Rain = 0
KWE2 231535Z 05008KT 14/13 A3008 RMK A01 T01440133  RH  093%=      5-min Rain = 0
KWE2 231536Z 05010KT 14/13 A3008 RMK A01 T01440131  RH  092%=      5-min Rain = 0
KWE2 231537Z 05010KT 14/13 A3008 RMK A01 T01440132  RH  092%=      5-min Rain = 0
KWE2 231538Z 05012KT 14/13 A3008 RMK A01 T01440131  RH  092%=      5-min Rain = 0
KWE2 231539Z 04012KT 14/13 A3008 RMK A01 T01430130  RH  092%=      5-min Rain = 0
KWE2 231540Z 04010KT 14/13 A3008 RMK A01 T01430131  RH  092%=      5-min Rain = 0
KWE2 231541Z 05012KT 14/13 A3007 RMK A01 T01430131  RH  092%=      5-min Rain = 0
KWE2 231542Z 04010KT 14/13 A3007 RMK A01 T01430131  RH  092%=      5-min Rain = 0
KWE2 231543Z 04009KT 14/13 A3007 RMK A01 T01430131  RH  092%=      5-min Rain = 0
KWE2 231544Z 05009KT 14/13 A3007 RMK A01 T01430132  RH  093%=      5-min Rain = 0
KWE2 231545Z 05010KT 14/13 A3007 RMK A01 T01430132  RH  093%=      5-min Rain = 0
KWE2 231546Z 05011KT 14/13 A3008 RMK A01 T01430131  RH  093%=      5-min Rain = 0
KWE2 231547Z 05011KT 14/13 A3008 RMK A01 T01430130  RH  092%=      5-min Rain = 0
KWE2 231548Z 05010KT 14/13 A3008 RMK A01 T01430130  RH  092%=      5-min Rain = 0
KWE2 231549Z 05010KT 14/13 A3008 RMK A01 T01440132  RH  093%=      5-min Rain = 0
KWE2 231550Z 05010KT 14/13 A3008 RMK A01 T01430130  RH  092%=      5-min Rain = 0
KWE2 231551Z 05011KT 14/13 A3008 RMK A01 T01440130  RH  092%=      5-min Rain = 0
KWE2 231552Z 06010KT 14/13 A3008 RMK A01 T01440130  RH  091%=      5-min Rain = 0
KWE2 231553Z 05011KT 14/13 A3008 RMK A01 T01440131  RH  091%=      5-min Rain = 0
KWE2 231554Z 05009KT 14/13 A3008 RMK A01 T01440131  RH  092%=      5-min Rain = 0
KWE2 231555Z 05012KT 15/13 A3008 RMK A01 T01450132  RH  092%=      5-min Rain = 0
KWE2 231556Z 04011KT 15/13 A3008 RMK A01 T01450130  RH  091%=      5-min Rain = 0
KWE2 231557Z 05009KT 15/13 A3008 RMK A01 T01450130  RH  091%=      5-min Rain = 0
KWE2 231558Z 05010KT 15/13 A3008 RMK A01 T01450131  RH  091%=      5-min Rain = 0
KWE2 231559Z 05011KT 15/13 A3008 RMK A01 T01450131  RH  091%=      5-min Rain = 0
KWE2 231600Z 05011KT 15/13 A3008 RMK A01 T01450132  RH  092%=      5-min Rain = 0
KWE2 231601Z 05010KT 15/13 A3008 RMK A01 T01460132  RH  091%=      5-min Rain = 0
KWE2 231602Z 04009KT 15/13 A3008 RMK A01 T01460132  RH  091%=      5-min Rain = 0
KWE2 231603Z 05011KT 15/13 A3008 RMK A01 T01460131  RH  091%=      5-min Rain = 0
KWE2 231604Z 04012KT 15/13 A3008 RMK A01 T01460130  RH  090%=      5-min Rain = 0
KWE2 231605Z 04010KT 15/13 A3008 RMK A01 T01450128  RH  090%=      5-min Rain = 0
KWE2 231606Z 04009KT 15/13 A3008 RMK A01 T01450130  RH  091%=      5-min Rain = 0
KWE2 231607Z 04008KT 15/13 A3008 RMK A01 T01460131  RH  091%=      5-min Rain = 0
KWE2 231608Z 05006KT 15/13 A3008 RMK A01 T01470134  RH  092%=      5-min Rain = 0
KWE2 231609Z 04007KT 15/14 A3008 RMK A01 T01490138  RH  093%=      5-min Rain = 0
KWE2 231610Z 05010KT 15/14 A3008 RMK A01 T01510135  RH  090%=      5-min Rain = 0
KWE2 231611Z 03007KT 15/13 A3008 RMK A01 T01510134  RH  090%=      5-min Rain = 0
KWE2 231612Z 04009G14KT 15/14 A3008 RMK A01 T01520136  RH  090%=      5-min Rain = 0
KWE2 231613Z 05009KT 15/13 A3008 RMK A01 T01520132  RH  088%=      5-min Rain = 0
KWE2 231614Z 04009KT 15/13 A3008 RMK A01 T01530133  RH  088%=      5-min Rain = 0
KWE2 231615Z 05009KT 15/13 A3008 RMK A01 T01540132  RH  086%=      5-min Rain = 0
KWE2 231616Z 05008KT 15/13 A3008 RMK A01 T01540133  RH  087%=      5-min Rain = 0
KWE2 231617Z 04009KT 16/14 A3008 RMK A01 T01560136  RH  088%=      5-min Rain = 0
KWE2 231618Z 06010KT 16/13 A3008 RMK A01 T01560132  RH  086%=      5-min Rain = 0
KWE2 231619Z 06008KT 16/13 A3008 RMK A01 T01560132  RH  086%=      5-min Rain = 0
KWE2 231620Z 07008KT 16/13 A3008 RMK A01 T01550132  RH  086%=      5-min Rain = 0
KWE2 231621Z 06010KT 15/13 A3008 RMK A01 T01540128  RH  084%=      5-min Rain = 0
KWE2 231622Z 06009KT 15/13 A3008 RMK A01 T01520128  RH  085%=      5-min Rain = 0
KWE2 231623Z 06009KT 15/13 A3008 RMK A01 T01520128  RH  086%=      5-min Rain = 0
KWE2 231624Z 05009KT 15/13 A3009 RMK A01 T01520129  RH  086%=      5-min Rain = 0
KWE2 231625Z 06007KT 15/13 A3009 RMK A01 T01510131  RH  088%=      5-min Rain = 0
KWE2 231626Z 06007KT 15/13 A3009 RMK A01 T01510133  RH  089%=      5-min Rain = 0
KWE2 231627Z 06006KT 15/13 A3009 RMK A01 T01520134  RH  089%=      5-min Rain = 0
KWE2 231628Z 06007KT 15/14 A3008 RMK A01 T01530136  RH  090%=      5-min Rain = 0
KWE2 231629Z 07011KT 15/13 A3008 RMK A01 T01530130  RH  086%=      5-min Rain = 0
KWE2 231630Z 07011KT 15/13 A3008 RMK A01 T01530128  RH  085%=      5-min Rain = 0
KWE2 231631Z 07010KT 15/13 A3008 RMK A01 T01520128  RH  085%=      5-min Rain = 0
KWE2 231632Z 07009KT 15/13 A3008 RMK A01 T01520128  RH  086%=      5-min Rain = 0
KWE2 231633Z 08008KT 15/13 A3008 RMK A01 T01520130  RH  087%=      5-min Rain = 0
KWE2 231634Z 07009KT 15/13 A3008 RMK A01 T01520131  RH  087%=      5-min Rain = 0
KWE2 231635Z 07007KT 15/13 A3008 RMK A01 T01530132  RH  088%=      5-min Rain = 0
KWE2 231636Z 07009KT 15/13 A3008 RMK A01 T01530131  RH  086%=      5-min Rain = 0
KWE2 231637Z 06010KT 15/13 A3008 RMK A01 T01530130  RH  086%=      5-min Rain = 0
KWE2 231638Z 07010KT 15/13 A3008 RMK A01 T01530128  RH  085%=      5-min Rain = 0
KWE2 231639Z 06007KT 15/13 A3008 RMK A01 T01520129  RH  086%=      5-min Rain = 0
KWE2 231640Z 06008KT 15/13 A3008 RMK A01 T01540131  RH  086%=      5-min Rain = 0
KWE2 231641Z 06010KT 15/13 A3008 RMK A01 T01540130  RH  085%=      5-min Rain = 0
KWE2 231642Z 06009KT 15/13 A3008 RMK A01 T01540130  RH  086%=      5-min Rain = 0
KWE2 231643Z 06006KT 16/13 A3008 RMK A01 T01550134  RH  087%=      5-min Rain = 0
KWE2 231644Z 07008KT 16/13 A3008 RMK A01 T01560134  RH  087%=      5-min Rain = 0
KWE2 231645Z 06009KT 16/13 A3008 RMK A01 T01570132  RH  085%=      5-min Rain = 0
KWE2 231646Z 06007KT 16/13 A3008 RMK A01 T01560132  RH  085%=      5-min Rain = 0
KWE2 231647Z 05008KT 16/13 A3008 RMK A01 T01560133  RH  086%=      5-min Rain = 0
KWE2 231648Z 05009KT 16/13 A3008 RMK A01 T01560134  RH  087%=      5-min Rain = 0
KWE2 231649Z 05012KT 16/13 A3007 RMK A01 T01560130  RH  084%=      5-min Rain = 0
KWE2 231650Z 05011KT 16/13 A3007 RMK A01 T01560128  RH  083%=      5-min Rain = 0
KWE2 231651Z 04010KT 16/13 A3007 RMK A01 T01550128  RH  084%=      5-min Rain = 0
KWE2 231652Z 04010KT 15/13 A3007 RMK A01 T01540129  RH  085%=      5-min Rain = 0
KWE2 231653Z 04011KT 15/13 A3007 RMK A01 T01540131  RH  086%=      5-min Rain = 0
KWE2 231654Z 04010G15KT 16/13 A3007 RMK A01 T01550131  RH  086%=      5-min Rain = 0
KWE2 231655Z 04011KT 16/13 A3007 RMK A01 T01560131  RH  085%=      5-min Rain = 0
KWE2 231656Z 05009KT 16/13 A3006 RMK A01 T01560129  RH  084%=      5-min Rain = 0
KWE2 231657Z 05008KT 16/13 A3006 RMK A01 T01560133  RH  086%=      5-min Rain = 0
KWE2 231658Z 04009KT 16/13 A3006 RMK A01 T01570134  RH  086%=      5-min Rain = 0
KWE2 231659Z 04011KT 16/13 A3006 RMK A01 T01570131  RH  084%=      5-min Rain = 0
KWE2 231700Z 04009KT 16/13 A3006 RMK A01 T01560130  RH  084%=      5-min Rain = 0
KWE2 231701Z 04008KT 16/13 A3006 RMK A01 T01560132  RH  086%=      5-min Rain = 0
KWE2 231702Z 04009KT 16/14 A3006 RMK A01 T01570135  RH  087%=      5-min Rain = 0
KWE2 231703Z 04011KT 16/13 A3006 RMK A01 T01590133  RH  085%=      5-min Rain = 0
KWE2 231704Z 04010KT 16/13 A3007 RMK A01 T01590132  RH  084%=      5-min Rain = 0
KWE2 231705Z 04009KT 16/13 A3007 RMK A01 T01600134  RH  084%=      5-min Rain = 0
KWE2 231706Z 04009KT 16/13 A3007 RMK A01 T01610133  RH  084%=      5-min Rain = 0
KWE2 231707Z 04010KT 16/13 A3007 RMK A01 T01610130  RH  082%=      5-min Rain = 0
KWE2 231708Z 05007KT 16/13 A3007 RMK A01 T01610134  RH  084%=      5-min Rain = 0
KWE2 231709Z 04009KT 16/13 A3007 RMK A01 T01610133  RH  084%=      5-min Rain = 0
KWE2 231710Z 03010KT 16/13 A3007 RMK A01 T01610134  RH  084%=      5-min Rain = 0
KWE2 231711Z 06008KT 16/13 A3007 RMK A01 T01610132  RH  083%=      5-min Rain = 0
KWE2 231712Z 05006KT 16/13 A3007 RMK A01 T01610133  RH  083%=      5-min Rain = 0
KWE2 231713Z 05006KT 16/14 A3007 RMK A01 T01630136  RH  084%=      5-min Rain = 0
KWE2 231714Z 05009KT 16/13 A3007 RMK A01 T01640131  RH  081%=      5-min Rain = 0
KWE2 231715Z 06008KT 16/13 A3007 RMK A01 T01640130  RH  080%=      5-min Rain = 0
KWE2 231716Z 05011KT 16/13 A3007 RMK A01 T01640128  RH  079%=      5-min Rain = 0
KWE2 231717Z 05009KT 16/13 A3007 RMK A01 T01620129  RH  081%=      5-min Rain = 0
KWE2 231718Z 07009KT 16/13 A3007 RMK A01 T01620130  RH  081%=      5-min Rain = 0
KWE2 231719Z 07007KT 16/13 A3007 RMK A01 T01610127  RH  080%=      5-min Rain = 0
KWE2 231720Z 07010KT 16/13 A3007 RMK A01 T01610129  RH  081%=      5-min Rain = 0
KWE2 231721Z 05010KT 16/13 A3007 RMK A01 T01610129  RH  081%=      5-min Rain = 0
KWE2 231722Z 05009KT 16/13 A3007 RMK A01 T01620128  RH  080%=      5-min Rain = 0
KWE2 231723Z 06009KT 16/13 A3007 RMK A01 T01610129  RH  081%=      5-min Rain = 0
KWE2 231724Z 05011KT 16/13 A3007 RMK A01 T01610127  RH  080%=      5-min Rain = 0
KWE2 231725Z 05010KT 16/13 A3007 RMK A01 T01610127  RH  080%=      5-min Rain = 0
KWE2 231726Z 06008KT 16/13 A3007 RMK A01 T01610127  RH  081%=      5-min Rain = 0
KWE2 231727Z 06006KT 16/13 A3007 RMK A01 T01610128  RH  081%=      5-min Rain = 0
KWE2 231728Z 05007KT 16/13 A3007 RMK A01 T01610129  RH  081%=      5-min Rain = 0
KWE2 231729Z 06009KT 16/13 A3007 RMK A01 T01610128  RH  081%=      5-min Rain = 0
KWE2 231730Z 07008KT 16/13 A3007 RMK A01 T01610127  RH  080%=      5-min Rain = 0
KWE2 231731Z 08007KT 16/13 A3007 RMK A01 T01620128  RH  080%=      5-min Rain = 0
KWE2 231732Z 07008KT 16/13 A3007 RMK A01 T01620127  RH  080%=      5-min Rain = 0
KWE2 231733Z 07007KT 16/13 A3007 RMK A01 T01630130  RH  081%=      5-min Rain = 0
KWE2 231734Z 07008KT 16/13 A3007 RMK A01 T01640130  RH  080%=      5-min Rain = 0
KWE2 231735Z 06007KT 16/13 A3007 RMK A01 T01640129  RH  080%=      5-min Rain = 0
KWE2 231736Z 06007KT 17/13 A3007 RMK A01 T01650130  RH  080%=      5-min Rain = 0
KWE2 231737Z 05006KT 17/13 A3007 RMK A01 T01650131  RH  080%=      5-min Rain = 0
KWE2 231738Z 05008KT 17/13 A3007 RMK A01 T01650130  RH  080%=      5-min Rain = 0
KWE2 231739Z 05006KT 16/13 A3007 RMK A01 T01640128  RH  079%=      5-min Rain = 0
KWE2 231740Z 04007KT 16/13 A3007 RMK A01 T01630131  RH  081%=      5-min Rain = 0
KWE2 231741Z 07007KT 16/13 A3007 RMK A01 T01640134  RH  083%=      5-min Rain = 0
KWE2 231742Z 08007KT 17/13 A3007 RMK A01 T01650131  RH  080%=      5-min Rain = 0
KWE2 231743Z 07009KT 17/13 A3007 RMK A01 T01650127  RH  078%=      5-min Rain = 0
KWE2 231744Z 05006KT 16/13 A3007 RMK A01 T01640128  RH  079%=      5-min Rain = 0
KWE2 231745Z 06008KT 16/13 A3007 RMK A01 T01640129  RH  080%=      5-min Rain = 0
KWE2 231746Z 06009KT 16/13 A3007 RMK A01 T01640129  RH  080%=      5-min Rain = 0
KWE2 231747Z 07008KT 16/13 A3007 RMK A01 T01630127  RH  079%=      5-min Rain = 0
KWE2 231748Z 09007KT 16/13 A3007 RMK A01 T01630125  RH  078%=      5-min Rain = 0
KWE2 231749Z 08007KT 16/13 A3007 RMK A01 T01620127  RH  080%=      5-min Rain = 0
KWE2 231750Z 07006KT 16/13 A3007 RMK A01 T01630126  RH  078%=      5-min Rain = 0
KWE2 231751Z 06006KT 16/13 A3007 RMK A01 T01630126  RH  078%=      5-min Rain = 0
KWE2 231752Z 06004KT 16/13 A3007 RMK A01 T01630126  RH  079%=      5-min Rain = 0
KWE2 231753Z 09006KT 16/13 A3007 RMK A01 T01620128  RH  080%=      5-min Rain = 0
KWE2 231754Z 08006KT 16/13 A3007 RMK A01 T01630127  RH  079%=      5-min Rain = 0
KWE2 231755Z 09008KT 16/13 A3007 RMK A01 T01630130  RH  081%=      5-min Rain = 0
KWE2 231756Z 09009KT 16/13 A3007 RMK A01 T01630132  RH  082%=      5-min Rain = 0
KWE2 231757Z 09009KT 16/13 A3007 RMK A01 T01630129  RH  081%=      5-min Rain = 0
KWE2 231758Z 08007KT 16/13 A3007 RMK A01 T01630129  RH  081%=      5-min Rain = 0
KWE2 231759Z 09007KT 16/13 A3007 RMK A01 T01630131  RH  081%=      5-min Rain = 0
KWE2 231800Z 09007KT 16/13 A3007 RMK A01 T01620131  RH  082%=      5-min Rain = 0
KWE2 231801Z 10008KT 16/13 A3007 RMK A01 T01620130  RH  081%=      5-min Rain = 0
KWE2 231802Z 09008KT 16/13 A3007 RMK A01 T01620130  RH  081%=      5-min Rain = 0
KWE2 231803Z 09008KT 16/13 A3007 RMK A01 T01630130  RH  081%=      5-min Rain = 0
KWE2 231804Z 09006KT 16/13 A3007 RMK A01 T01630125  RH  078%=      5-min Rain = 0
KWE2 231805Z 09008KT 16/12 A3007 RMK A01 T01630124  RH  078%=      5-min Rain = 0
KWE2 231806Z 09008KT 16/12 A3007 RMK A01 T01620124  RH  078%=      5-min Rain = 0
KWE2 231807Z 09007KT 16/12 A3007 RMK A01 T01620122  RH  078%=      5-min Rain = 0
KWE2 231808Z 10007KT 16/13 A3007 RMK A01 T01610125  RH  079%=      5-min Rain = 0
KWE2 231809Z 09006KT 16/13 A3007 RMK A01 T01610129  RH  081%=      5-min Rain = 0
KWE2 231810Z 08005KT 16/13 A3007 RMK A01 T01610128  RH  081%=      5-min Rain = 0
KWE2 231811Z 07005KT 16/13 A3007 RMK A01 T01620127  RH  080%=      5-min Rain = 0
KWE2 231812Z 09006KT 16/13 A3007 RMK A01 T01620129  RH  081%=      5-min Rain = 0
KWE2 231813Z 09007KT 16/13 A3007 RMK A01 T01620127  RH  080%=      5-min Rain = 0
KWE2 231814Z 08007KT 16/13 A3007 RMK A01 T01630128  RH  080%=      5-min Rain = 0
KWE2 231815Z 09010KT 16/13 A3006 RMK A01 T01630130  RH  081%=      5-min Rain = 0
KWE2 231816Z 08009KT 16/13 A3006 RMK A01 T01630128  RH  080%=      5-min Rain = 0
KWE2 231817Z 09007KT 16/13 A3006 RMK A01 T01630128  RH  080%=      5-min Rain = 0
KWE2 231818Z 08007KT 16/13 A3006 RMK A01 T01630129  RH  080%=      5-min Rain = 0
KWE2 231819Z 09008KT 16/13 A3006 RMK A01 T01640131  RH  081%=      5-min Rain = 0
KWE2 231820Z 09008KT 17/13 A3006 RMK A01 T01660131  RH  080%=      5-min Rain = 0
KWE2 231821Z 08008KT 17/13 A3006 RMK A01 T01670128  RH  078%=      5-min Rain = 0
KWE2 231822Z 09008KT 17/13 A3006 RMK A01 T01670129  RH  078%=      5-min Rain = 0
KWE2 231823Z 09006KT 17/13 A3006 RMK A01 T01660130  RH  079%=      5-min Rain = 0
KWE2 231824Z 09007KT 17/14 A3006 RMK A01 T01680135  RH  081%=      5-min Rain = 0
KWE2 231825Z 08008KT 17/13 A3006 RMK A01 T01690133  RH  079%=      5-min Rain = 0
KWE2 231826Z 08006KT 17/13 A3005 RMK A01 T01700131  RH  078%=      5-min Rain = 0
KWE2 231827Z 08008KT 17/13 A3005 RMK A01 T01700133  RH  079%=      5-min Rain = 0
KWE2 231828Z 08007KT 17/13 A3005 RMK A01 T01710129  RH  076%=      5-min Rain = 0
KWE2 231829Z 09006KT 17/13 A3006 RMK A01 T01700127  RH  075%=      5-min Rain = 0
KWE2 231830Z 07007KT 17/13 A3006 RMK A01 T01700127  RH  076%=      5-min Rain = 0
KWE2 231831Z 06005KT 17/13 A3006 RMK A01 T01710125  RH  075%=      5-min Rain = 0
KWE2 231832Z 07005KT 17/13 A3006 RMK A01 T01720126  RH  074%=      5-min Rain = 0
KWE2 231833Z 08007KT 17/13 A3006 RMK A01 T01730130  RH  076%=      5-min Rain = 0
KWE2 231834Z 09009KT 17/13 A3006 RMK A01 T01740130  RH  075%=      5-min Rain = 0
KWE2 231835Z 09009KT 17/13 A3006 RMK A01 T01730128  RH  075%=      5-min Rain = 0
KWE2 231836Z 08009KT 17/13 A3005 RMK A01 T01720129  RH  076%=      5-min Rain = 0
KWE2 231837Z 08007KT 17/13 A3005 RMK A01 T01720132  RH  077%=      5-min Rain = 0
KWE2 231838Z 09008KT 18/14 A3006 RMK A01 T01760140  RH  079%=      5-min Rain = 0
KWE2 231839Z 10008KT 18/14 A3006 RMK A01 T01800139  RH  077%=      5-min Rain = 0
KWE2 231840Z 10007KT 18/13 A3005 RMK A01 T01800134  RH  075%=      5-min Rain = 0
KWE2 231841Z 09006KT 18/13 A3005 RMK A01 T01760130  RH  074%=      5-min Rain = 0
KWE2 231842Z 09006KT 18/13 A3005 RMK A01 T01750130  RH  075%=      5-min Rain = 0
KWE2 231843Z 09006KT 17/13 A3005 RMK A01 T01740129  RH  075%=      5-min Rain = 0
KWE2 231844Z 08005KT 17/13 A3005 RMK A01 T01740131  RH  076%=      5-min Rain = 0
KWE2 231845Z 09005KT 18/13 A3005 RMK A01 T01760131  RH  075%=      5-min Rain = 0
KWE2 231846Z 08005KT 18/13 A3005 RMK A01 T01780133  RH  075%=      5-min Rain = 0
KWE2 231847Z 06005KT 18/13 A3005 RMK A01 T01800133  RH  074%=      5-min Rain = 0
KWE2 231848Z 05003KT 18/13 A3005 RMK A01 T01800126  RH  071%=      5-min Rain = 0
KWE2 231849Z 04007KT 18/13 A3005 RMK A01 T01800129  RH  072%=      5-min Rain = 0
KWE2 231850Z 05005KT 18/13 A3005 RMK A01 T01800128  RH  072%=      5-min Rain = 0
KWE2 231851Z 03003KT 18/13 A3005 RMK A01 T01800128  RH  072%=      5-min Rain = 0
KWE2 231852Z 04003KT 18/13 A3005 RMK A01 T01800127  RH  071%=      5-min Rain = 0
KWE2 231853Z 06002KT 18/13 A3005 RMK A01 T01800129  RH  072%=      5-min Rain = 0
KWE2 231854Z 07006KT 18/14 A3005 RMK A01 T01810136  RH  075%=      5-min Rain = 0
KWE2 231855Z 05005KT 18/13 A3005 RMK A01 T01820130  RH  071%=      5-min Rain = 0
KWE2 231856Z 05005KT 18/13 A3005 RMK A01 T01820133  RH  073%=      5-min Rain = 0
KWE2 231857Z 04006KT 18/13 A3005 RMK A01 T01810131  RH  073%=      5-min Rain = 0
KWE2 231858Z 07003KT 18/13 A3005 RMK A01 T01800130  RH  073%=      5-min Rain = 0
KWE2 231859Z 07005KT 18/14 A3005 RMK A01 T01810135  RH  074%=      5-min Rain = 0
KWE2 231900Z 06005KT 18/14 A3005 RMK A01 T01810138  RH  076%=      5-min Rain = 0
KWE2 231901Z 06005KT 18/13 A3005 RMK A01 T01820132  RH  073%=      5-min Rain = 0
KWE2 231902Z 05005KT 18/13 A3005 RMK A01 T01800128  RH  072%=      5-min Rain = 0
KWE2 231903Z 05007KT 18/13 A3005 RMK A01 T01780134  RH  075%=      5-min Rain = 0
KWE2 231904Z 05005KT 18/13 A3005 RMK A01 T01780134  RH  075%=      5-min Rain = 0
KWE2 231905Z 05004KT 18/13 A3005 RMK A01 T01780130  RH  074%=      5-min Rain = 0
KWE2 231906Z 08006KT 18/13 A3005 RMK A01 T01770130  RH  074%=      5-min Rain = 0
KWE2 231907Z 06006KT 18/13 A3005 RMK A01 T01760131  RH  075%=      5-min Rain = 0
KWE2 231908Z 06005KT 18/13 A3005 RMK A01 T01770132  RH  075%=      5-min Rain = 0
KWE2 231909Z 07006KT 18/13 A3005 RMK A01 T01770130  RH  074%=      5-min Rain = 0
KWE2 231910Z 06005KT 18/13 A3005 RMK A01 T01760130  RH  074%=      5-min Rain = 0
KWE2 231911Z 07004KT 18/13 A3005 RMK A01 T01760128  RH  073%=      5-min Rain = 0
KWE2 231912Z 07003KT 18/13 A3005 RMK A01 T01750131  RH  075%=      5-min Rain = 0
KWE2 231913Z 03007KT 18/13 A3005 RMK A01 T01760133  RH  076%=      5-min Rain = 0
KWE2 231914Z 04007KT 18/13 A3005 RMK A01 T01760132  RH  076%=      5-min Rain = 0
KWE2 231915Z 04007KT 18/13 A3005 RMK A01 T01760132  RH  075%=      5-min Rain = 0
KWE2 231916Z 03006KT 18/13 A3005 RMK A01 T01750132  RH  076%=      5-min Rain = 0
KWE2 231917Z 03008KT 18/13 A3005 RMK A01 T01750133  RH  077%=      5-min Rain = 0
KWE2 231918Z 04007KT 18/13 A3005 RMK A01 T01750131  RH  075%=      5-min Rain = 0
KWE2 231919Z 04005KT 17/13 A3005 RMK A01 T01740128  RH  074%=      5-min Rain = 0
KWE2 231920Z 03003KT 17/13 A3005 RMK A01 T01740130  RH  076%=      5-min Rain = 0
KWE2 231921Z 03004KT 17/13 A3005 RMK A01 T01740127  RH  074%=      5-min Rain = 0
KWE2 231922Z 03006KT 17/13 A3005 RMK A01 T01730129  RH  075%=      5-min Rain = 0
KWE2 231923Z 02005KT 17/13 A3005 RMK A01 T01730130  RH  076%=      5-min Rain = 0
KWE2 231924Z 01006KT 17/13 A3005 RMK A01 T01740131  RH  076%=      5-min Rain = 0
KWE2 231925Z 03005KT 18/13 A3004 RMK A01 T01750133  RH  076%=      5-min Rain = 0
KWE2 231926Z 03006KT 18/14 A3004 RMK A01 T01760135  RH  077%=      5-min Rain = 0
KWE2 231927Z 03009KT 18/13 A3004 RMK A01 T01760133  RH  075%=      5-min Rain = 0
KWE2 231928Z 02006KT 18/13 A3004 RMK A01 T01760128  RH  074%=      5-min Rain = 0
KWE2 231929Z 01004KT 18/13 A3004 RMK A01 T01750130  RH  075%=      5-min Rain = 0
KWE2 231930Z 03005KT 18/13 A3004 RMK A01 T01750129  RH  074%=      5-min Rain = 0
KWE2 231931Z 03006KT 18/13 A3004 RMK A01 T01750128  RH  074%=      5-min Rain = 0
KWE2 231932Z 02005KT 18/13 A3004 RMK A01 T01750128  RH  074%=      5-min Rain = 0
KWE2 231933Z 04004KT 18/13 A3004 RMK A01 T01750129  RH  075%=      5-min Rain = 0
KWE2 231934Z 03004KT 17/13 A3004 RMK A01 T01740129  RH  075%=      5-min Rain = 0
KWE2 231935Z 04003KT 17/13 A3004 RMK A01 T01740129  RH  075%=      5-min Rain = 0
KWE2 231936Z 05005KT 18/13 A3004 RMK A01 T01750130  RH  075%=      5-min Rain = 0
KWE2 231937Z 02005KT 17/13 A3004 RMK A01 T01740132  RH  076%=      5-min Rain = 0
KWE2 231938Z 05005KT 18/13 A3004 RMK A01 T01750134  RH  077%=      5-min Rain = 0
KWE2 231939Z 05005KT 18/13 A3004 RMK A01 T01750130  RH  075%=      5-min Rain = 0
KWE2 231940Z 04005KT 18/13 A3004 RMK A01 T01750128  RH  074%=      5-min Rain = 0
KWE2 231941Z 03003KT 18/13 A3004 RMK A01 T01750133  RH  076%=      5-min Rain = 0
KWE2 231942Z 05005KT 18/13 A3004 RMK A01 T01750132  RH  075%=      5-min Rain = 0
KWE2 231943Z 04005KT 18/13 A3004 RMK A01 T01760130  RH  075%=      5-min Rain = 0
KWE2 231944Z 03007KT 18/14 A3004 RMK A01 T01760135  RH  077%=      5-min Rain = 0
KWE2 231945Z 03005KT 18/13 A3004 RMK A01 T01760134  RH  076%=      5-min Rain = 0
KWE2 231946Z 02006KT 18/13 A3004 RMK A01 T01770132  RH  075%=      5-min Rain = 0
KWE2 231947Z 04005KT 18/13 A3004 RMK A01 T01770131  RH  074%=      5-min Rain = 0
KWE2 231948Z 05004KT 18/14 A3004 RMK A01 T01770136  RH  077%=      5-min Rain = 0
KWE2 231949Z 04006KT 18/14 A3004 RMK A01 T01770135  RH  076%=      5-min Rain = 0
KWE2 231950Z 05005KT 18/13 A3004 RMK A01 T01760133  RH  076%=      5-min Rain = 0
KWE2 231951Z 05005KT 18/13 A3004 RMK A01 T01770132  RH  075%=      5-min Rain = 0
KWE2 231952Z 02004KT 18/13 A3004 RMK A01 T01760134  RH  076%=      5-min Rain = 0
KWE2 231953Z 03005KT 18/13 A3004 RMK A01 T01770134  RH  076%=      5-min Rain = 0
KWE2 231954Z 02005KT 18/13 A3004 RMK A01 T01770131  RH  074%=      5-min Rain = 0
KWE2 231955Z 03007KT 18/13 A3004 RMK A01 T01770133  RH  075%=      5-min Rain = 0
KWE2 231956Z 02007KT 18/13 A3004 RMK A01 T01770132  RH  075%=      5-min Rain = 0
KWE2 231957Z 03006KT 18/13 A3004 RMK A01 T01770129  RH  074%=      5-min Rain = 0
KWE2 231958Z 01006KT 18/13 A3004 RMK A01 T01760131  RH  075%=      5-min Rain = 0
KWE2 231959Z 01006KT 18/13 A3004 RMK A01 T01760130  RH  074%=      5-min Rain = 0
KWE2 232000Z 36005KT 18/13 A3004 RMK A01 T01760130  RH  075%=      5-min Rain = 0
KWE2 232001Z 02008KT 18/13 A3004 RMK A01 T01760134  RH  077%=      5-min Rain = 0
KWE2 232002Z 04006KT 18/14 A3004 RMK A01 T01770135  RH  076%=      5-min Rain = 0
KWE2 232003Z 04004KT 18/13 A3004 RMK A01 T01770134  RH  076%=      5-min Rain = 0
KWE2 232004Z 04005KT 18/13 A3004 RMK A01 T01770133  RH  075%=      5-min Rain = 0
KWE2 232005Z 04006KT 18/13 A3004 RMK A01 T01760129  RH  074%=      5-min Rain = 0
KWE2 232006Z 04005KT 18/13 A3004 RMK A01 T01760131  RH  075%=      5-min Rain = 0
KWE2 232007Z 05005KT 18/13 A3004 RMK A01 T01750131  RH  075%=      5-min Rain = 0
KWE2 232008Z 03005KT 18/13 A3004 RMK A01 T01750134  RH  077%=      5-min Rain = 0
KWE2 232009Z 02006KT 18/13 A3004 RMK A01 T01750133  RH  076%=      5-min Rain = 0
KWE2 232010Z 03005KT 18/13 A3004 RMK A01 T01760133  RH  076%=      5-min Rain = 0
KWE2 232011Z 01004KT 18/14 A3004 RMK A01 T01760135  RH  077%=      5-min Rain = 0
KWE2 232012Z 03007KT 18/13 A3004 RMK A01 T01760134  RH  076%=      5-min Rain = 0
KWE2 232013Z 03007KT 18/14 A3004 RMK A01 T01760136  RH  077%=      5-min Rain = 0
KWE2 232014Z 04007KT 18/14 A3004 RMK A01 T01760137  RH  078%=      5-min Rain = 0
KWE2 232015Z 04007KT 18/13 A3004 RMK A01 T01750132  RH  076%=      5-min Rain = 0
KWE2 232016Z 05006KT 18/13 A3004 RMK A01 T01750131  RH  076%=      5-min Rain = 0
KWE2 232017Z 06005KT 17/13 A3004 RMK A01 T01740133  RH  077%=      5-min Rain = 0
KWE2 232018Z 04006KT 17/13 A3004 RMK A01 T01740132  RH  076%=      5-min Rain = 0
KWE2 232019Z 04006KT 17/13 A3004 RMK A01 T01740133  RH  077%=      5-min Rain = 0
KWE2 232020Z 05007KT 17/13 A3004 RMK A01 T01740134  RH  077%=      5-min Rain = 0
KWE2 232021Z 04006KT 17/13 A3004 RMK A01 T01740129  RH  075%=      5-min Rain = 0
KWE2 232022Z 04006KT 17/13 A3003 RMK A01 T01740131  RH  076%=      5-min Rain = 0
KWE2 232023Z 05006KT 17/13 A3003 RMK A01 T01730132  RH  077%=      5-min Rain = 0
KWE2 232024Z 04006KT 17/13 A3003 RMK A01 T01740134  RH  078%=      5-min Rain = 0
KWE2 232025Z 04006KT 17/13 A3003 RMK A01 T01740132  RH  077%=      5-min Rain = 0
KWE2 232026Z 05005KT 17/13 A3003 RMK A01 T01740133  RH  077%=      5-min Rain = 0
KWE2 232027Z 05004KT 17/14 A3003 RMK A01 T01740136  RH  078%=      5-min Rain = 0
KWE2 232028Z 03005KT 17/13 A3003 RMK A01 T01740134  RH  077%=      5-min Rain = 0
KWE2 232029Z 06006KT 17/13 A3003 RMK A01 T01740134  RH  077%=      5-min Rain = 0
KWE2 232030Z 05006KT 17/13 A3003 RMK A01 T01740132  RH  076%=      5-min Rain = 0
KWE2 232031Z 05005KT 17/13 A3003 RMK A01 T01740132  RH  076%=      5-min Rain = 0
KWE2 232032Z 06004KT 17/13 A3003 RMK A01 T01740133  RH  077%=      5-min Rain = 0
KWE2 232033Z 07004KT 17/13 A3003 RMK A01 T01740133  RH  077%=      5-min Rain = 0
KWE2 232034Z 07005KT 17/13 A3003 RMK A01 T01740130  RH  075%=      5-min Rain = 0
KWE2 232035Z 07006KT 18/13 A3003 RMK A01 T01750131  RH  075%=      5-min Rain = 0
KWE2 232036Z 07005KT 18/13 A3003 RMK A01 T01750130  RH  075%=      5-min Rain = 0
KWE2 232037Z 07007KT 18/13 A3003 RMK A01 T01750129  RH  075%=      5-min Rain = 0
KWE2 232038Z 08005KT 18/13 A3003 RMK A01 T01750128  RH  074%=      5-min Rain = 0
KWE2 232039Z 07005KT 17/13 A3003 RMK A01 T01740129  RH  075%=      5-min Rain = 0
KWE2 232040Z 07004KT 17/13 A3003 RMK A01 T01740129  RH  075%=      5-min Rain = 0
KWE2 232041Z 06005KT 17/13 A3003 RMK A01 T01740128  RH  074%=      5-min Rain = 0
KWE2 232042Z 07005KT 17/13 A3003 RMK A01 T01740128  RH  074%=      5-min Rain = 0
KWE2 232043Z 06005KT 17/13 A3003 RMK A01 T01740130  RH  075%=      5-min Rain = 0
KWE2 232044Z 07004KT 17/13 A3003 RMK A01 T01740129  RH  075%=      5-min Rain = 0
KWE2 232045Z 07005KT 17/13 A3003 RMK A01 T01740128  RH  074%=      5-min Rain = 0
KWE2 232046Z 07005KT 18/13 A3003 RMK A01 T01750129  RH  074%=      5-min Rain = 0
KWE2 232047Z 05006KT 18/13 A3003 RMK A01 T01750130  RH  075%=      5-min Rain = 0
KWE2 232048Z 06007KT 18/13 A3003 RMK A01 T01750132  RH  076%=      5-min Rain = 0
KWE2 232049Z 06007KT 18/13 A3003 RMK A01 T01750132  RH  076%=      5-min Rain = 0
KWE2 232050Z 06005KT 18/13 A3003 RMK A01 T01750132  RH  076%=      5-min Rain = 0
KWE2 232051Z 07006KT 18/13 A3003 RMK A01 T01750131  RH  075%=      5-min Rain = 0
KWE2 232052Z 07004KT 18/13 A3003 RMK A01 T01750132  RH  076%=      5-min Rain = 0
KWE2 232053Z 07004KT 18/13 A3002 RMK A01 T01750132  RH  076%=      5-min Rain = 0
KWE2 232054Z 07003KT 18/14 A3002 RMK A01 T01750135  RH  077%=      5-min Rain = 0
KWE2 232055Z 08006KT 18/13 A3002 RMK A01 T01760132  RH  076%=      5-min Rain = 0
KWE2 232056Z 09005KT 18/13 A3002 RMK A01 T01760133  RH  076%=      5-min Rain = 0
KWE2 232057Z 09007KT 18/14 A3002 RMK A01 T01760135  RH  077%=      5-min Rain = 0
KWE2 232058Z 08006KT 18/13 A3002 RMK A01 T01760132  RH  075%=      5-min Rain = 0
KWE2 232059Z 07007KT 18/13 A3002 RMK A01 T01760132  RH  075%=      5-min Rain = 0
KWE2 232100Z 08006KT 18/13 A3002 RMK A01 T01760130  RH  074%=      5-min Rain = 0
KWE2 232101Z 06006KT 18/14 A3002 RMK A01 T01750135  RH  077%=      5-min Rain = 0
KWE2 232102Z 05006KT 18/13 A3002 RMK A01 T01750134  RH  076%=      5-min Rain = 0
KWE2 232103Z 08005KT 18/13 A3002 RMK A01 T01750134  RH  076%=      5-min Rain = 0
KWE2 232104Z 06005KT 18/14 A3002 RMK A01 T01760135  RH  077%=      5-min Rain = 0
KWE2 232105Z 05007KT 18/13 A3002 RMK A01 T01760134  RH  076%=      5-min Rain = 0
KWE2 232106Z 06005KT 18/13 A3002 RMK A01 T01760134  RH  076%=      5-min Rain = 0
KWE2 232107Z 06006KT 18/13 A3002 RMK A01 T01760133  RH  076%=      5-min Rain = 0
KWE2 232108Z 06007KT 18/13 A3001 RMK A01 T01760133  RH  076%=      5-min Rain = 0
KWE2 232109Z 06006KT 18/13 A3001 RMK A01 T01760132  RH  075%=      5-min Rain = 0
KWE2 232110Z 05006KT 18/13 A3001 RMK A01 T01760134  RH  076%=      5-min Rain = 0
KWE2 232111Z 05006KT 18/14 A3001 RMK A01 T01770136  RH  077%=      5-min Rain = 0
KWE2 232112Z 06005KT 18/14 A3001 RMK A01 T01770137  RH  077%=      5-min Rain = 0
KWE2 232113Z 05006KT 18/14 A3001 RMK A01 T01780139  RH  078%=      5-min Rain = 0
KWE2 232114Z 08006KT 18/14 A3001 RMK A01 T01790138  RH  077%=      5-min Rain = 0
KWE2 232115Z 06005KT 18/14 A3001 RMK A01 T01790135  RH  075%=      5-min Rain = 0
KWE2 232116Z 07006KT 18/14 A3001 RMK A01 T01790137  RH  076%=      5-min Rain = 0
KWE2 232117Z 06007KT 18/14 A3001 RMK A01 T01780135  RH  076%=      5-min Rain = 0
KWE2 232118Z 07007KT 18/14 A3001 RMK A01 T01780136  RH  077%=      5-min Rain = 0
KWE2 232119Z 05006KT 18/14 A3001 RMK A01 T01770136  RH  077%=      5-min Rain = 0
KWE2 232120Z 05008KT 18/14 A3001 RMK A01 T01770136  RH  077%=      5-min Rain = 0
KWE2 232121Z 06007KT 18/14 A3001 RMK A01 T01760136  RH  077%=      5-min Rain = 0
KWE2 232122Z 06006KT 18/14 A3001 RMK A01 T01760137  RH  078%=      5-min Rain = 0
KWE2 232123Z 05005KT 18/14 A3001 RMK A01 T01760137  RH  078%=      5-min Rain = 0
KWE2 232124Z 04006KT 18/14 A3001 RMK A01 T01770140  RH  079%=      5-min Rain = 0
KWE2 232125Z 04006KT 18/14 A3001 RMK A01 T01780140  RH  079%=      5-min Rain = 0
KWE2 232126Z 04006KT 18/14 A3001 RMK A01 T01780138  RH  077%=      5-min Rain = 0
KWE2 232127Z 06005KT 18/14 A3001 RMK A01 T01780139  RH  078%=      5-min Rain = 0
KWE2 232128Z 07005KT 18/14 A3001 RMK A01 T01780135  RH  076%=      5-min Rain = 0
KWE2 232129Z 05005KT 18/14 A3001 RMK A01 T01780136  RH  077%=      5-min Rain = 0
KWE2 232130Z 04004KT 18/14 A3001 RMK A01 T01770139  RH  078%=      5-min Rain = 0
KWE2 232131Z 05005KT 18/14 A3001 RMK A01 T01780142  RH  080%=      5-min Rain = 0
KWE2 232132Z 05007KT 18/14 A3001 RMK A01 T01790139  RH  077%=      5-min Rain = 0
KWE2 232133Z 04007KT 18/14 A3001 RMK A01 T01780139  RH  078%=      5-min Rain = 0
KWE2 232134Z 04007KT 18/14 A3001 RMK A01 T01780136  RH  076%=      5-min Rain = 0
KWE2 232135Z 05006KT 18/14 A3001 RMK A01 T01780138  RH  078%=      5-min Rain = 0
KWE2 232136Z 05007KT 18/14 A30 RMK A01 T01780138  RH  077%=      5-min Rain = 0
KWE2 232137Z 05008KT 18/14 A30 RMK A01 T01770135  RH  076%=      5-min Rain = 0
KWE2 232138Z 05008KT 18/14 A30 RMK A01 T01770136  RH  077%=      5-min Rain = 0
KWE2 232139Z 05007KT 18/14 A30 RMK A01 T01760137  RH  077%=      5-min Rain = 0
KWE2 232140Z 05007KT 18/13 A30 RMK A01 T01760133  RH  076%=      5-min Rain = 0
KWE2 232141Z 05007KT 18/13 A30 RMK A01 T01760134  RH  077%=      5-min Rain = 0
KWE2 232142Z 04006KT 18/14 A30 RMK A01 T01760137  RH  078%=      5-min Rain = 0
KWE2 232143Z 04007KT 18/13 A30 RMK A01 T01760134  RH  076%=      5-min Rain = 0
KWE2 232144Z 04007KT 18/13 A30 RMK A01 T01760133  RH  076%=      5-min Rain = 0
KWE2 232145Z 05009KT 18/13 A30 RMK A01 T01760134  RH  077%=      5-min Rain = 0
KWE2 232146Z 04008KT 18/14 A30 RMK A01 T01750135  RH  077%=      5-min Rain = 0
KWE2 232147Z 06008KT 18/14 A30 RMK A01 T01750136  RH  078%=      5-min Rain = 0
KWE2 232148Z 05006KT 18/14 A30 RMK A01 T01750135  RH  077%=      5-min Rain = 0
KWE2 232149Z 05007KT 18/14 A30 RMK A01 T01750136  RH  078%=      5-min Rain = 0
KWE2 232150Z 06007KT 18/14 A30 RMK A01 T01750136  RH  078%=      5-min Rain = 0
KWE2 232151Z 07007KT 18/13 A30 RMK A01 T01750133  RH  076%=      5-min Rain = 0
KWE2 232152Z 07008KT 18/13 A30 RMK A01 T01750132  RH  076%=      5-min Rain = 0
KWE2 232153Z 06006KT 18/13 A30 RMK A01 T01750132  RH  076%=      5-min Rain = 0
KWE2 232154Z 05005KT 18/14 A30 RMK A01 T01750135  RH  077%=      5-min Rain = 0
KWE2 232155Z 06006KT 18/14 A30 RMK A01 T01760138  RH  079%=      5-min Rain = 0
KWE2 232156Z 06007KT 18/14 A30 RMK A01 T01760136  RH  078%=      5-min Rain = 0
KWE2 232157Z 05006KT 18/14 A30 RMK A01 T01760136  RH  077%=      5-min Rain = 0
KWE2 232158Z 05007KT 18/14 A30 RMK A01 T01760137  RH  078%=      5-min Rain = 0
KWE2 232159Z 06007KT 18/14 A30 RMK A01 T01760138  RH  078%=      5-min Rain = 0
KWE2 232200Z 04007KT 18/14 A30 RMK A01 T01760141  RH  080%=      5-min Rain = 0
KWE2 232201Z 04008KT 18/14 A30 RMK A01 T01760136  RH  077%=      5-min Rain = 0
KWE2 232202Z 04008KT 18/14 A30 RMK A01 T01760135  RH  077%=      5-min Rain = 0
KWE2 232203Z 03008KT 18/14 A30 RMK A01 T01760135  RH  077%=      5-min Rain = 0
KWE2 232204Z 03007KT 18/14 A30 RMK A01 T01760138  RH  078%=      5-min Rain = 0
KWE2 232205Z 04008KT 18/14 A30 RMK A01 T01760138  RH  079%=      5-min Rain = 0
KWE2 232206Z 04008KT 18/14 A30 RMK A01 T01760138  RH  079%=      5-min Rain = 0
KWE2 232207Z 04007KT 18/14 A30 RMK A01 T01760139  RH  079%=      5-min Rain = 0
KWE2 232208Z 05008KT 18/14 A30 RMK A01 T01760138  RH  078%=      5-min Rain = 0
KWE2 232209Z 05008KT 18/14 A2999 RMK A01 T01760136  RH  077%=      5-min Rain = 0
KWE2 232210Z 04007KT 18/14 A2999 RMK A01 T01760135  RH  077%=      5-min Rain = 0
KWE2 232211Z 03008KT 18/13 A2999 RMK A01 T01760134  RH  077%=      5-min Rain = 0
KWE2 232212Z 03009KT 18/14 A2999 RMK A01 T01760135  RH  077%=      5-min Rain = 0
KWE2 232213Z 04008KT 18/14 A2999 RMK A01 T01760135  RH  077%=      5-min Rain = 0
KWE2 232214Z 05008KT 18/14 A2999 RMK A01 T01760136  RH  077%=      5-min Rain = 0
KWE2 232215Z 04006KT 18/14 A2999 RMK A01 T01760139  RH  079%=      5-min Rain = 0
KWE2 232216Z 04007KT 18/14 A2999 RMK A01 T01770141  RH  079%=      5-min Rain = 0
KWE2 232217Z 03008KT 18/14 A2999 RMK A01 T01770140  RH  079%=      5-min Rain = 0
KWE2 232218Z 03009KT 18/14 A2999 RMK A01 T01770140  RH  079%=      5-min Rain = 0
KWE2 232219Z 03009KT 18/14 A2999 RMK A01 T01770140  RH  079%=      5-min Rain = 0
KWE2 232220Z 03008KT 18/14 A2999 RMK A01 T01770139  RH  078%=      5-min Rain = 0
KWE2 232221Z 03009KT 18/14 A2999 RMK A01 T01770139  RH  078%=      5-min Rain = 0
KWE2 232222Z 04008KT 18/14 A2999 RMK A01 T01770141  RH  080%=      5-min Rain = 0
KWE2 232223Z 04007KT 18/14 A2999 RMK A01 T01770140  RH  079%=      5-min Rain = 0
KWE2 232224Z 03007KT 18/14 A2999 RMK A01 T01770138  RH  078%=      5-min Rain = 0
KWE2 232225Z 03010KT 18/14 A2999 RMK A01 T01770139  RH  078%=      5-min Rain = 0
KWE2 232226Z 04010KT 18/14 A2999 RMK A01 T01770137  RH  077%=      5-min Rain = 0
KWE2 232227Z 04008KT 18/14 A2999 RMK A01 T01770138  RH  078%=      5-min Rain = 0
KWE2 232228Z 04009KT 18/14 A2999 RMK A01 T01760139  RH  079%=      5-min Rain = 0
KWE2 232229Z 03014KT 18/14 A2999 RMK A01 T01760140  RH  079%=      5-min Rain = 0
KWE2 232230Z 03014KT 17/14 A2999 RMK A01 T01740144  RH  083%=      5-min Rain = 0
KWE2 232231Z 02014KT 17/15 A2999 RMK A01 T01710147  RH  085%=      5-min Rain = 0
KWE2 232232Z 03013KT 17/15 A2999 RMK A01 T01700147  RH  087%=      5-min Rain = 0
KWE2 232233Z 03015KT 17/15 A2999 RMK A01 T01690145  RH  086%=      5-min Rain = 0
KWE2 232234Z 03015KT 17/15 A2999 RMK A01 T01680146  RH  087%=      5-min Rain = 0
KWE2 232235Z 04015KT 17/15 A2999 RMK A01 T01680145  RH  087%=      5-min Rain = 0
KWE2 232236Z 03014KT 17/15 A2999 RMK A01 T01670145  RH  087%=      5-min Rain = 0
KWE2 232237Z 03011G16KT 17/15 A2999 RMK A01 T01670146  RH  087%=      5-min Rain = 0
KWE2 232238Z 03012KT 17/15 A2999 RMK A01 T01690150  RH  089%=      5-min Rain = 0
KWE2 232239Z 03013KT 17/15 A2999 RMK A01 T01700148  RH  087%=      5-min Rain = 0
KWE2 232240Z 03012KT 17/15 A2999 RMK A01 T01700147  RH  087%=      5-min Rain = 0
KWE2 232241Z 04010KT 17/15 A2999 RMK A01 T01690148  RH  087%=      5-min Rain = 0
KWE2 232242Z 03016KT 17/15 A2999 RMK A01 T01690145  RH  086%=      5-min Rain = 0
KWE2 232243Z 04015KT 17/14 A2999 RMK A01 T01670142  RH  085%=      5-min Rain = 0
KWE2 232244Z 04013KT 17/14 A2999 RMK A01 T01660143  RH  086%=      5-min Rain = 0
KWE2 232245Z 03014KT 17/14 A2999 RMK A01 T01670143  RH  086%=      5-min Rain = 0
KWE2 232246Z 03014KT 17/14 A2999 RMK A01 T01660142  RH  085%=      5-min Rain = 0
KWE2 232247Z 03014KT 17/14 A2999 RMK A01 T01660143  RH  086%=      5-min Rain = 0
KWE2 232248Z 03014KT 17/14 A2999 RMK A01 T01670143  RH  086%=      5-min Rain = 0
KWE2 232249Z 03009KT 17/15 A2999 RMK A01 T01670146  RH  087%=      5-min Rain = 0
KWE2 232250Z 03012KT 17/15 A2999 RMK A01 T01690148  RH  087%=      5-min Rain = 0
KWE2 232251Z 03015KT 17/14 A2999 RMK A01 T01700144  RH  085%=      5-min Rain = 0
KWE2 232252Z 03016KT 17/14 A2999 RMK A01 T01690141  RH  084%=      5-min Rain = 0
KWE2 232253Z 03015KT 17/14 A2999 RMK A01 T01670141  RH  085%=      5-min Rain = 0
KWE2 232254Z 03016KT 17/14 A2999 RMK A01 T01670144  RH  086%=      5-min Rain = 0
KWE2 232255Z 04015KT 17/14 A2999 RMK A01 T01660142  RH  086%=      5-min Rain = 0
KWE2 232256Z 04013KT 17/14 A2999 RMK A01 T01660143  RH  086%=      5-min Rain = 0
KWE2 232257Z 03015KT 17/14 A2999 RMK A01 T01660143  RH  087%=      5-min Rain = 0
KWE2 232258Z 03013G18KT 17/14 A2999 RMK A01 T01650143  RH  087%=      5-min Rain = 0
KWE2 232259Z 03013KT 17/14 A2999 RMK A01 T01650142  RH  086%=      5-min Rain = 0
KWE2 232300Z 03014KT 16/14 A2999 RMK A01 T01640141  RH  086%=      5-min Rain = 0
KWE2 232301Z 04014KT 16/14 A2999 RMK A01 T01640142  RH  087%=      5-min Rain = 0
KWE2 232302Z 04013KT 16/14 A2999 RMK A01 T01630142  RH  087%=      5-min Rain = 0
KWE2 232303Z 03012KT 16/14 A2999 RMK A01 T01630143  RH  088%=      5-min Rain = 0
KWE2 232304Z 02015KT 16/14 A2999 RMK A01 T01620143  RH  088%=      5-min Rain = 0
KWE2 232305Z 03014KT 16/14 A2999 RMK A01 T01610141  RH  088%=      5-min Rain = 0
KWE2 232306Z 03015KT 16/14 A2999 RMK A01 T01600139  RH  088%=      5-min Rain = 0
KWE2 232307Z 03015KT 16/14 A2999 RMK A01 T01590138  RH  087%=      5-min Rain = 0
KWE2 232308Z 03014KT 16/14 A2999 RMK A01 T01580138  RH  088%=      5-min Rain = 0
KWE2 232309Z 03014KT 16/14 A2999 RMK A01 T01580138  RH  088%=      5-min Rain = 0
KWE2 232310Z 03011KT 16/14 A2999 RMK A01 T01580138  RH  088%=      5-min Rain = 0
KWE2 232311Z 03013KT 16/14 A2999 RMK A01 T01580139  RH  088%=      5-min Rain = 0
KWE2 232312Z 02014KT 16/14 A2999 RMK A01 T01580139  RH  088%=      5-min Rain = 0
KWE2 232313Z 03014KT 16/14 A2999 RMK A01 T01580140  RH  089%=      5-min Rain = 0
KWE2 232314Z 03015KT 16/14 A2999 RMK A01 T01580139  RH  088%=      5-min Rain = 0
KWE2 232315Z 03015KT 16/14 A2999 RMK A01 T01580138  RH  088%=      5-min Rain = 0
KWE2 232316Z 02013KT 16/14 A30 RMK A01 T01570138  RH  088%=      5-min Rain = 0
KWE2 232317Z 02013KT 16/14 A30 RMK A01 T01570139  RH  089%=      5-min Rain = 0
KWE2 232318Z 03014G21KT 16/14 A30 RMK A01 T01560139  RH  090%=      5-min Rain = 0
KWE2 232319Z 03015G20KT 16/14 A30 RMK A01 T01560137  RH  088%=      5-min Rain = 0
KWE2 232320Z 03016KT 16/14 A30 RMK A01 T01550136  RH  088%=      5-min Rain = 0
KWE2 232321Z 02016KT 16/14 A30 RMK A01 T01550137  RH  089%=      5-min Rain = 0
KWE2 232322Z 02016KT 15/14 A30 RMK A01 T01540135  RH  088%=      5-min Rain = 0
KWE2 232323Z 02017KT 15/13 A30 RMK A01 T01530134  RH  088%=      5-min Rain = 0
KWE2 232324Z 02015G20KT 15/13 A30 RMK A01 T01530133  RH  088%=      5-min Rain = 0
KWE2 232325Z 02012KT 15/14 A30 RMK A01 T01520135  RH  089%=      5-min Rain = 0
KWE2 232326Z 03014G20KT 15/14 A30 RMK A01 T01520135  RH  089%=      5-min Rain = 0
KWE2 232327Z 03016KT 15/13 A3001 RMK A01 T01520133  RH  089%=      5-min Rain = 0
KWE2 232328Z 03015KT 15/13 A3001 RMK A01 T01520133  RH  088%=      5-min Rain = 0
KWE2 232329Z 04015KT 15/13 A3001 RMK A01 T01510133  RH  088%=      5-min Rain = 0
KWE2 232330Z 04012KT 15/13 A3001 RMK A01 T01510132  RH  088%=      5-min Rain = 0
KWE2 232331Z 03010KT 15/13 A3001 RMK A01 T01510134  RH  089%=      5-min Rain = 0
KWE2 232332Z 03015KT 15/13 A3001 RMK A01 T01510134  RH  089%=      5-min Rain = 0
KWE2 232333Z 03013KT 15/13 A3001 RMK A01 T01510132  RH  088%=      5-min Rain = 0
KWE2 232334Z 03013KT 15/13 A3001 RMK A01 T01510132  RH  088%=      5-min Rain = 0
KWE2 232335Z 03017KT 15/13 A3001 RMK A01 T01500132  RH  089%=      5-min Rain = 0
KWE2 232336Z 03014KT 15/13 A3001 RMK A01 T01510131  RH  088%=      5-min Rain = 0
KWE2 232337Z 03015G20KT 15/13 A3001 RMK A01 T01500132  RH  089%=      5-min Rain = 0
KWE2 232338Z 02016KT 15/13 A3001 RMK A01 T01490131  RH  089%=      5-min Rain = 0
KWE2 232339Z 02016KT 15/13 A3001 RMK A01 T01480130  RH  089%=      5-min Rain = 0
KWE2 232340Z 02016G22KT 15/13 A3001 RMK A01 T01480130  RH  089%=      5-min Rain = 0
KWE2 232341Z 02018KT 15/13 A3001 RMK A01 T01470129  RH  089%=      5-min Rain = 0
KWE2 232342Z 02019KT 15/13 A3001 RMK A01 T01470128  RH  089%=      5-min Rain = 0
KWE2 232343Z 02016KT 15/13 A3001 RMK A01 T01460128  RH  089%=      5-min Rain = 0
KWE2 232344Z 02017KT 15/13 A3001 RMK A01 T01460129  RH  090%=      5-min Rain = 0
KWE2 232345Z 02019G24KT 15/13 A3001 RMK A01 T01450128  RH  089%=      5-min Rain = 0
KWE2 232346Z 02016KT 15/13 A3001 RMK A01 T01450128  RH  090%=      5-min Rain = 0
KWE2 232347Z 03015KT 15/13 A3001 RMK A01 T01450129  RH  090%=      5-min Rain = 0
KWE2 232348Z 03015KT 14/13 A3001 RMK A01 T01440129  RH  090%=      5-min Rain = 0
KWE2 232349Z 02014KT 14/13 A3001 RMK A01 T01440129  RH  091%=      5-min Rain = 0
KWE2 232350Z 02015G20KT 14/13 A3001 RMK A01 T01440130  RH  091%=      5-min Rain = 0
KWE2 232351Z 02018G23KT 14/13 A3001 RMK A01 T01440128  RH  090%=      5-min Rain = 0
KWE2 232352Z 02019G24KT 14/13 A3001 RMK A01 T01430126  RH  090%=      5-min Rain = 0
KWE2 232353Z 03020G25KT 14/13 A3001 RMK A01 T01410126  RH  090%=      5-min Rain = 0
KWE2 232354Z 03020KT 14/13 A3001 RMK A01 T01400125  RH  090%=      5-min Rain = 0
KWE2 232355Z 03018G23KT 14/13 A3001 RMK A01 T01400125  RH  091%=      5-min Rain = 0
KWE2 232356Z 03017KT 14/13 A3002 RMK A01 T01390125  RH  091%=      5-min Rain = 0
KWE2 232357Z 03013G18KT 14/13 A3002 RMK A01 T01390126  RH  092%=      5-min Rain = 0
KWE2 232358Z 03012KT 14/13 A3002 RMK A01 T01390127  RH  093%=      5-min Rain = 0
KWE2 232359Z 03014KT 14/13 A3001 RMK A01 T01390127  RH  092%=      5-min Rain = 0
KWE2 240000Z 03015G20KT 14/13 A3001 RMK A01 T01390125  RH  091%=      5-min Rain = 0
KWE2 240001Z 03015KT 14/13 A3001 RMK A01 T01390125  RH  091%=      5-min Rain = 0
KWE2 240002Z 03015KT 14/13 A3001 RMK A01 T01390125  RH  091%=      5-min Rain = 0
KWE2 240003Z 03017G22KT 14/12 A3001 RMK A01 T01380124  RH  091%=      5-min Rain = 0
KWE2 240004Z 03019KT 14/12 A3001 RMK A01 T01380124  RH  091%=      5-min Rain = 0
KWE2 240005Z 03016KT 14/12 A3001 RMK A01 T01380123  RH  091%=      5-min Rain = 0
KWE2 240006Z 03013KT 14/12 A3001 RMK A01 T01380124  RH  092%=      5-min Rain = 0
KWE2 240007Z 03013KT 14/13 A3001 RMK A01 T01380125  RH  092%=      5-min Rain = 0
KWE2 240008Z 03014KT 14/13 A3001 RMK A01 T01380125  RH  092%=      5-min Rain = 0
KWE2 240009Z 03016KT 14/13 A3001 RMK A01 T01380125  RH  092%=      5-min Rain = 0
KWE2 240010Z 03016KT 14/12 A3001 RMK A01 T01380124  RH  092%=      5-min Rain = 0
KWE2 240011Z 04016KT 14/12 A3001 RMK A01 T01370124  RH  092%=      5-min Rain = 0
KWE2 240012Z 03014G19KT 14/13 A3001 RMK A01 T01370125  RH  092%=      5-min Rain = 0
KWE2 240013Z 03016KT 14/12 A3001 RMK A01 T01370124  RH  092%=      5-min Rain = 0
KWE2 240014Z 03016KT 14/12 A3001 RMK A01 T01360124  RH  092%=      5-min Rain = 0
KWE2 240015Z 03015KT 14/12 A3001 RMK A01 T01360124  RH  093%=      5-min Rain = 0
KWE2 240016Z 02017KT 14/12 A3001 RMK A01 T01360124  RH  093%=      5-min Rain = 0
KWE2 240017Z 02013KT 14/13 A3001 RMK A01 T01360125  RH  093%=      5-min Rain = 0
KWE2 240018Z 02018KT 14/13 A3001 RMK A01 T01360125  RH  093%=      5-min Rain = 0
KWE2 240019Z 03016KT 14/12 A3001 RMK A01 T01350124  RH  093%=      5-min Rain = 0
KWE2 240020Z 03014KT 14/13 A3001 RMK A01 T01350125  RH  094%=      5-min Rain = 0
KWE2 240021Z 03015G20KT 13/13 A3001 RMK A01 T01340125  RH  094%=      5-min Rain = 0
KWE2 240022Z 03015KT 13/13 A3001 RMK A01 T01340125  RH  094%=      5-min Rain = 0
KWE2 240023Z 03017KT 13/13 A3001 RMK A01 T01340125  RH  094%=      5-min Rain = 0
KWE2 240024Z 03013KT 13/12 A3001 RMK A01 T01340124  RH  094%=      5-min Rain = 0
KWE2 240025Z 03014KT 13/13 A3001 RMK A01 T01340125  RH  094%=      5-min Rain = 0
KWE2 240026Z 03012G17KT 13/13 A3001 RMK A01 T01340125  RH  095%=      5-min Rain = 0
KWE2 240027Z 03013KT 13/13 A3001 RMK A01 T01340125  RH  094%=      5-min Rain = 0
KWE2 240028Z 03013KT 13/13 A3001 RMK A01 T01340125  RH  094%=      5-min Rain = 0
KWE2 240029Z 03015KT 13/12 A3001 RMK A01 T01340124  RH  094%=      5-min Rain = 0
KWE2 240030Z 03014G20KT 13/12 A3001 RMK A01 T01340124  RH  094%=      5-min Rain = 0
KWE2 240031Z 03017KT 13/12 A3001 RMK A01 T01340124  RH  093%=      5-min Rain = 0
KWE2 240032Z 03012KT 13/12 A3001 RMK A01 T01340123  RH  093%=      5-min Rain = 0
KWE2 240033Z 03012KT 13/12 A3001 RMK A01 T01340124  RH  093%=      5-min Rain = 0
KWE2 240034Z 03014KT 13/12 A3001 RMK A01 T01340123  RH  093%=      5-min Rain = 0
KWE2 240035Z 03012KT 14/12 A3001 RMK A01 T01350123  RH  092%=      5-min Rain = 0
KWE2 240036Z 03011KT 14/12 A3001 RMK A01 T01350123  RH  093%=      5-min Rain = 0
KWE2 240037Z 03010KT 14/12 A3002 RMK A01 T01360124  RH  092%=      5-min Rain = 0
KWE2 240038Z 03014KT 14/12 A3001 RMK A01 T01360123  RH  092%=      5-min Rain = 0
KWE2 240039Z 03015KT 14/12 A3001 RMK A01 T01350121  RH  091%=      5-min Rain = 0
KWE2 240040Z 03012KT 14/12 A3001 RMK A01 T01360122  RH  091%=      5-min Rain = 0
KWE2 240041Z 03013KT 14/12 A3001 RMK A01 T01360122  RH  091%=      5-min Rain = 0
KWE2 240042Z 03015KT 14/12 A3001 RMK A01 T01360121  RH  091%=      5-min Rain = 0
KWE2 240043Z 02014KT 14/12 A3001 RMK A01 T01360121  RH  091%=      5-min Rain = 0
KWE2 240044Z 03014KT 14/12 A3001 RMK A01 T01360121  RH  091%=      5-min Rain = 0
KWE2 240045Z 03014KT 14/12 A3001 RMK A01 T01360121  RH  090%=      5-min Rain = 0
KWE2 240046Z 03016KT 14/12 A3001 RMK A01 T01360120  RH  090%=      5-min Rain = 0
KWE2 240047Z 03014KT 14/12 A3001 RMK A01 T01370120  RH  090%=      5-min Rain = 0
KWE2 240048Z 03013KT 14/12 A3001 RMK A01 T01370121  RH  090%=      5-min Rain = 0
KWE2 240049Z 03014KT 14/12 A3001 RMK A01 T01370121  RH  090%=      5-min Rain = 0
KWE2 240050Z 03013G18KT 14/12 A3001 RMK A01 T01370121  RH  090%=      5-min Rain = 0
KWE2 240051Z 03011KT 14/12 A3001 RMK A01 T01370121  RH  090%=      5-min Rain = 0
KWE2 240052Z 03014KT 14/12 A3001 RMK A01 T01370121  RH  090%=      5-min Rain = 0
KWE2 240053Z 03012KT 14/12 A3001 RMK A01 T01370121  RH  090%=      5-min Rain = 0
KWE2 240054Z 03013KT 14/12 A3001 RMK A01 T01370121  RH  090%=      5-min Rain = 0
KWE2 240055Z 03011KT 14/12 A3001 RMK A01 T01370122  RH  090%=      5-min Rain = 0
KWE2 240056Z 04012KT 14/12 A3001 RMK A01 T01370122  RH  090%=      5-min Rain = 0
KWE2 240057Z 04010KT 14/12 A3001 RMK A01 T01370122  RH  090%=      5-min Rain = 0
KWE2 240058Z 04011KT 14/12 A3001 RMK A01 T01370123  RH  091%=      5-min Rain = 0
KWE2 240059Z 04010KT 14/12 A3001 RMK A01 T01370122  RH  090%=      5-min Rain = 0
KWE2 240100Z 03011KT 14/12 A3001 RMK A01 T01370123  RH  091%=      5-min Rain = 0
KWE2 240101Z 03009KT 14/12 A3001 RMK A01 T01370122  RH  091%=      5-min Rain = 0
KWE2 240102Z 04008KT 14/12 A3001 RMK A01 T01370123  RH  091%=      5-min Rain = 0
KWE2 240103Z 04011KT 14/12 A3001 RMK A01 T01370123  RH  091%=      5-min Rain = 0
KWE2 240104Z 03010KT 14/12 A3002 RMK A01 T01370123  RH  091%=      5-min Rain = 0
KWE2 240105Z 03011KT 14/12 A3002 RMK A01 T01370123  RH  091%=      5-min Rain = 0
KWE2 240106Z 04013KT 14/12 A3002 RMK A01 T01380123  RH  091%=      5-min Rain = 0
KWE2 240107Z 04010KT 14/12 A3002 RMK A01 T01370122  RH  090%=      5-min Rain = 0
KWE2 240108Z 04009KT 14/12 A3002 RMK A01 T01380123  RH  091%=      5-min Rain = 0
KWE2 240109Z 04008KT 14/12 A3002 RMK A01 T01380124  RH  091%=      5-min Rain = 0
KWE2 240110Z 04009KT 14/12 A3002 RMK A01 T01380124  RH  092%=      5-min Rain = 0
KWE2 240111Z 04011KT 14/13 A3002 RMK A01 T01380125  RH  092%=      5-min Rain = 0
KWE2 240112Z 04010KT 14/13 A3002 RMK A01 T01380125  RH  092%=      5-min Rain = 0
KWE2 240113Z 03008KT 14/13 A3002 RMK A01 T01370125  RH  092%=      5-min Rain = 0
KWE2 240114Z 04009KT 14/13 A3002 RMK A01 T01370126  RH  093%=      5-min Rain = 0
KWE2 240115Z 04010KT 14/13 A3002 RMK A01 T01370125  RH  092%=      5-min Rain = 0
KWE2 240116Z 04010KT 14/13 A3002 RMK A01 T01370126  RH  093%=      5-min Rain = 0
KWE2 240117Z 04008KT 14/13 A3002 RMK A01 T01370125  RH  093%=      5-min Rain = 0
KWE2 240118Z 04011KT 14/13 A3002 RMK A01 T01370125  RH  092%=      5-min Rain = 0
KWE2 240119Z 04011KT 14/12 A3002 RMK A01 T01370124  RH  092%=      5-min Rain = 0
KWE2 240120Z 04011KT 14/12 A3002 RMK A01 T01370124  RH  091%=      5-min Rain = 0
KWE2 240121Z 04011KT 14/12 A3002 RMK A01 T01370123  RH  091%=      5-min Rain = 0
KWE2 240122Z 04011KT 14/12 A3002 RMK A01 T01370123  RH  091%=      5-min Rain = 0
KWE2 240123Z 03012KT 14/12 A3002 RMK A01 T01380123  RH  091%=      5-min Rain = 0
KWE2 240124Z 04010KT 14/12 A3002 RMK A01 T01380123  RH  091%=      5-min Rain = 0
KWE2 240125Z 04009KT 14/12 A3002 RMK A01 T01380124  RH  092%=      5-min Rain = 0
KWE2 240126Z 04008KT 14/13 A3002 RMK A01 T01380126  RH  093%=      5-min Rain = 0
KWE2 240127Z 04009KT 14/13 A3002 RMK A01 T01380126  RH  093%=      5-min Rain = 0
KWE2 240128Z 04008KT 14/13 A3002 RMK A01 T01370127  RH  093%=      5-min Rain = 0
KWE2 240129Z 04007KT 14/13 A3002 RMK A01 T01370128  RH  094%=      5-min Rain = 0
KWE2 240130Z 03010KT 14/13 A3002 RMK A01 T01370128  RH  094%=      5-min Rain = 0
KWE2 240131Z 03010KT 14/13 A3002 RMK A01 T01370127  RH  094%=      5-min Rain = 0
KWE2 240132Z 03009KT 14/13 A3002 RMK A01 T01370127  RH  094%=      5-min Rain = 0
KWE2 240133Z 03011KT 14/13 A3002 RMK A01 T01370127  RH  094%=      5-min Rain = 0
KWE2 240134Z 03012KT 14/13 A3002 RMK A01 T01370126  RH  093%=      5-min Rain = 0
KWE2 240135Z 02011KT 14/13 A3002 RMK A01 T01370126  RH  093%=      5-min Rain = 0
KWE2 240136Z 03010KT 14/13 A3002 RMK A01 T01370126  RH  093%=      5-min Rain = 0
KWE2 240137Z 03011KT 14/13 A3002 RMK A01 T01370126  RH  093%=      5-min Rain = 0
KWE2 240138Z 03011KT 14/13 A3002 RMK A01 T01370125  RH  093%=      5-min Rain = 0
KWE2 240139Z 03010KT 14/13 A3002 RMK A01 T01370125  RH  092%=      5-min Rain = 0
KWE2 240140Z 03011KT 14/13 A3002 RMK A01 T01370126  RH  093%=      5-min Rain = 0
KWE2 240141Z 03011KT 14/13 A3002 RMK A01 T01370125  RH  092%=      5-min Rain = 0
KWE2 240142Z 03011KT 14/13 A3002 RMK A01 T01370125  RH  092%=      5-min Rain = 0
KWE2 240143Z 03013KT 14/12 A3002 RMK A01 T01370123  RH  091%=      5-min Rain = 0
KWE2 240144Z 02013KT 14/12 A3002 RMK A01 T01380122  RH  090%=      5-min Rain = 0
KWE2 240145Z 03012KT 14/12 A3002 RMK A01 T01380122  RH  090%=      5-min Rain = 0
KWE2 240146Z 02011KT 14/12 A3002 RMK A01 T01380122  RH  090%=      5-min Rain = 0
KWE2 240147Z 03012KT 14/12 A3002 RMK A01 T01380122  RH  090%=      5-min Rain = 0
KWE2 240148Z 03010KT 14/12 A3002 RMK A01 T01380121  RH  089%=      5-min Rain = 0
KWE2 240149Z 03011KT 14/12 A3002 RMK A01 T01380122  RH  090%=      5-min Rain = 0
KWE2 240150Z 03012KT 14/12 A3002 RMK A01 T01380121  RH  090%=      5-min Rain = 0
KWE2 240151Z 03011KT 14/12 A3002 RMK A01 T01380121  RH  090%=      5-min Rain = 0
KWE2 240152Z 03010KT 14/12 A3002 RMK A01 T01380122  RH  090%=      5-min Rain = 0
KWE2 240153Z 03009KT 14/12 A3002 RMK A01 T01380124  RH  091%=      5-min Rain = 0
KWE2 240154Z 02012KT 14/12 A3001 RMK A01 T01380124  RH  092%=      5-min Rain = 0
KWE2 240155Z 03012KT 14/12 A3001 RMK A01 T01380123  RH  091%=      5-min Rain = 0
KWE2 240156Z 03013KT 14/12 A3001 RMK A01 T01380123  RH  091%=      5-min Rain = 0
KWE2 240157Z 03011KT 14/12 A3001 RMK A01 T01380122  RH  090%=      5-min Rain = 0
KWE2 240158Z 03014KT 14/12 A3001 RMK A01 T01380122  RH  090%=      5-min Rain = 0
KWE2 240159Z 02014KT 14/12 A3001 RMK A01 T01380121  RH  090%=      5-min Rain = 0
KWE2 240200Z 03013KT 14/12 A3001 RMK A01 T01370120  RH  089%=      5-min Rain = 0
KWE2 240201Z 03013KT 14/12 A3001 RMK A01 T01370119  RH  089%=      5-min Rain = 0
KWE2 240202Z 03015KT 14/12 A3001 RMK A01 T01370119  RH  089%=      5-min Rain = 0
KWE2 240203Z 03014KT 14/12 A30 RMK A01 T01370118  RH  089%=      5-min Rain = 0
KWE2 240204Z 03016KT 14/12 A30 RMK A01 T01360118  RH  089%=      5-min Rain = 0
KWE2 240205Z 03014KT 14/12 A30 RMK A01 T01360118  RH  089%=      5-min Rain = 0
KWE2 240206Z 03011KT 14/12 A30 RMK A01 T01360118  RH  089%=      5-min Rain = 0
KWE2 240207Z 03013KT 14/12 A30 RMK A01 T01350118  RH  089%=      5-min Rain = 0
KWE2 240208Z 04012KT 14/12 A30 RMK A01 T01360118  RH  089%=      5-min Rain = 0
KWE2 240209Z 04012KT 14/12 A30 RMK A01 T01350118  RH  089%=      5-min Rain = 0
KWE2 240210Z 04013KT 14/12 A3001 RMK A01 T01350117  RH  089%=      5-min Rain = 0
KWE2 240211Z 03013KT 14/12 A3001 RMK A01 T01350117  RH  089%=      5-min Rain = 0
KWE2 240212Z 04011KT 14/12 A3001 RMK A01 T01350117  RH  089%=      5-min Rain = 0
KWE2 240213Z 03011KT 14/12 A3001 RMK A01 T01350118  RH  090%=      5-min Rain = 0
KWE2 240214Z 04011KT 14/12 A3001 RMK A01 T01350118  RH  090%=      5-min Rain = 0
KWE2 240215Z 04010KT 14/12 A3001 RMK A01 T01350118  RH  090%=      5-min Rain = 0
KWE2 240216Z 04010G15KT 13/12 A3001 RMK A01 T01340119  RH  090%=      5-min Rain = 0
KWE2 240217Z 04012KT 13/12 A3001 RMK A01 T01340117  RH  090%=      5-min Rain = 0
KWE2 240218Z 04010KT 13/12 A3001 RMK A01 T01340117  RH  089%=      5-min Rain = 0
KWE2 240219Z 04009KT 13/12 A3001 RMK A01 T01340118  RH  090%=      5-min Rain = 0
KWE2 240220Z 04008KT 13/12 A3001 RMK A01 T01340118  RH  091%=      5-min Rain = 0
KWE2 240221Z 04010KT 13/12 A3001 RMK A01 T01330118  RH  091%=      5-min Rain = 0
KWE2 240222Z 04012KT 13/12 A3001 RMK A01 T01330117  RH  090%=      5-min Rain = 0
KWE2 240223Z 04011G16KT 13/12 A3001 RMK A01 T01330117  RH  090%=      5-min Rain = 0
KWE2 240224Z 04012KT 13/12 A3001 RMK A01 T01330116  RH  090%=      5-min Rain = 0
KWE2 240225Z 04010KT 13/12 A3001 RMK A01 T01330116  RH  090%=      5-min Rain = 0
KWE2 240226Z 04011KT 13/12 A3001 RMK A01 T01330116  RH  090%=      5-min Rain = 0
KWE2 240227Z 04009KT 13/12 A3001 RMK A01 T01330116  RH  090%=      5-min Rain = 0
KWE2 240228Z 04010KT 13/12 A3001 RMK A01 T01330117  RH  090%=      5-min Rain = 0
KWE2 240229Z 04010KT 13/12 A3001 RMK A01 T01320116  RH  090%=      5-min Rain = 0
KWE2 240230Z 04010KT 13/12 A3002 RMK A01 T01320116  RH  090%=      5-min Rain = 0
KWE2 240231Z 04009KT 13/12 A3002 RMK A01 T01330117  RH  090%=      5-min Rain = 0
KWE2 240232Z 04008KT 13/12 A3002 RMK A01 T01320117  RH  091%=      5-min Rain = 0
KWE2 240233Z 04009KT 13/12 A3002 RMK A01 T01320117  RH  091%=      5-min Rain = 0
KWE2 240234Z 03009KT 13/12 A3002 RMK A01 T01320117  RH  091%=      5-min Rain = 0
KWE2 240235Z 03010KT 13/12 A3001 RMK A01 T01320117  RH  091%=      5-min Rain = 0
KWE2 240236Z 03010KT 13/12 A3001 RMK A01 T01320117  RH  091%=      5-min Rain = 0
KWE2 240237Z 03012KT 13/12 A3001 RMK A01 T01310116  RH  091%=      5-min Rain = 0
KWE2 240238Z 03012KT 13/12 A3001 RMK A01 T01310116  RH  090%=      5-min Rain = 0
KWE2 240239Z 03012KT 13/12 A3001 RMK A01 T01310116  RH  090%=      5-min Rain = 0
KWE2 240240Z 03011KT 13/12 A3001 RMK A01 T01310116  RH  090%=      5-min Rain = 0
KWE2 240241Z 03011KT 13/12 A3001 RMK A01 T01310116  RH  090%=      5-min Rain = 0
KWE2 240242Z 03010KT 13/12 A3001 RMK A01 T01310116  RH  090%=      5-min Rain = 0
KWE2 240243Z 03008KT 13/12 A3001 RMK A01 T01310116  RH  091%=      5-min Rain = 0
KWE2 240244Z 03009KT 13/12 A3002 RMK A01 T01310116  RH  091%=      5-min Rain = 0
KWE2 240245Z 04009KT 13/12 A3002 RMK A01 T01310117  RH  091%=      5-min Rain = 0
KWE2 240246Z 04007KT 13/12 A3003 RMK A01 T01310117  RH  091%=      5-min Rain = 0
KWE2 240247Z 04009KT 13/12 A3003 RMK A01 T01310117  RH  091%=      5-min Rain = 0
KWE2 240248Z 04008KT 13/12 A3004 RMK A01 T01310116  RH  091%=      5-min Rain = 0
KWE2 240249Z 05009KT 13/12 A3004 RMK A01 T01310116  RH  091%=      5-min Rain = 0
KWE2 240250Z 04009KT 13/12 A3004 RMK A01 T01310116  RH  091%=      5-min Rain = 0
KWE2 240251Z 04009KT 13/12 A3004 RMK A01 T01320117  RH  091%=      5-min Rain = 0
KWE2 240252Z 04009KT 13/12 A3004 RMK A01 T01320116  RH  090%=      5-min Rain = 0
KWE2 240253Z 04008KT 13/12 A3004 RMK A01 T01320117  RH  090%=      5-min Rain = 0
KWE2 240254Z 04007KT 13/12 A3004 RMK A01 T01320117  RH  091%=      5-min Rain = 0
KWE2 240255Z 03008KT 13/12 A3004 RMK A01 T01320118  RH  091%=      5-min Rain = 0
KWE2 240256Z 04008KT 13/12 A3004 RMK A01 T01320118  RH  091%=      5-min Rain = 0
KWE2 240257Z 03009KT 13/12 A3003 RMK A01 T01320117  RH  091%=      5-min Rain = 0
KWE2 240258Z 03009KT 13/12 A3003 RMK A01 T01320117  RH  091%=      5-min Rain = 0
KWE2 240259Z 04009KT 13/12 A3003 RMK A01 T01320118  RH  091%=      5-min Rain = 0
KWE2 240300Z 04008KT 13/12 A3003 RMK A01 T01320118  RH  091%=      5-min Rain = 0
KWE2 240301Z 04008KT 13/12 A3004 RMK A01 T01320118  RH  091%=      5-min Rain = 0
KWE2 240302Z 04008KT 13/12 A3004 RMK A01 T01320118  RH  091%=      5-min Rain = 0
KWE2 240303Z 04008KT 13/12 A3004 RMK A01 T01320118  RH  091%=      5-min Rain = 0
KWE2 240304Z 05007KT 13/12 A3004 RMK A01 T01320118  RH  092%=      5-min Rain = 0
KWE2 240305Z 06007KT 13/12 A3005 RMK A01 T01320119  RH  092%=      5-min Rain = 0
KWE2 240306Z 07006KT 13/12 A3005 RMK A01 T01320119  RH  092%=      5-min Rain = 0
KWE2 240307Z 06006KT 13/12 A3005 RMK A01 T01320119  RH  092%=      5-min Rain = 0
KWE2 240308Z 07007KT 13/12 A3005 RMK A01 T01320119  RH  092%=      5-min Rain = 0
KWE2 240309Z 07007KT 13/12 A3005 RMK A01 T01320120  RH  092%=      5-min Rain = 0
KWE2 240310Z 06006KT 13/12 A3006 RMK A01 T01320120  RH  092%=      5-min Rain = 0
KWE2 240311Z 06008KT 13/12 A3006 RMK A01 T01320120  RH  092%=      5-min Rain = 0
KWE2 240312Z 06008KT 13/12 A3006 RMK A01 T01330120  RH  092%=      5-min Rain = 0
KWE2 240313Z 05007KT 13/12 A3005 RMK A01 T01330121  RH  092%=      5-min Rain = 0
KWE2 240314Z 05007KT 13/12 A3005 RMK A01 T01330121  RH  093%=      5-min Rain = 0
KWE2 240315Z 04008KT 13/12 A3005 RMK A01 T01330121  RH  093%=      5-min Rain = 0
KWE2 240316Z 04007KT 13/12 A3005 RMK A01 T01330121  RH  093%=      5-min Rain = 0
KWE2 240317Z 04007KT 13/12 A3005 RMK A01 T01330121  RH  093%=      5-min Rain = 0
KWE2 240318Z 03007KT 13/12 A3005 RMK A01 T01320121  RH  093%=      5-min Rain = 0
KWE2 240319Z 04008KT 13/12 A3005 RMK A01 T01320121  RH  093%=      5-min Rain = 0
KWE2 240320Z 04007KT 13/12 A3005 RMK A01 T01320121  RH  093%=      5-min Rain = 0
KWE2 240321Z 04007KT 13/12 A3005 RMK A01 T01320121  RH  093%=      5-min Rain = 0
KWE2 240322Z 04006KT 13/12 A3006 RMK A01 T01320120  RH  093%=      5-min Rain = 0
KWE2 240323Z 04006KT 13/12 A3006 RMK A01 T01320121  RH  093%=      5-min Rain = 0
KWE2 240324Z 05005KT 13/12 A3006 RMK A01 T01320121  RH  093%=      5-min Rain = 0
KWE2 240325Z 04006KT 13/12 A3006 RMK A01 T01310121  RH  093%=      5-min Rain = 0
KWE2 240326Z 04006KT 13/12 A3006 RMK A01 T01320121  RH  093%=      5-min Rain = 0
KWE2 240327Z 04006KT 13/12 A3006 RMK A01 T01310121  RH  093%=      5-min Rain = 0
KWE2 240328Z 04007KT 13/12 A3006 RMK A01 T01310120  RH  093%=      5-min Rain = 0
KWE2 240329Z 04006KT 13/12 A3006 RMK A01 T01310120  RH  093%=      5-min Rain = 0
KWE2 240330Z 04007KT 13/12 A3006 RMK A01 T01310121  RH  094%=      5-min Rain = 0
KWE2 240331Z 04006KT 13/12 A3006 RMK A01 T01300120  RH  093%=      5-min Rain = 0
KWE2 240332Z 04005KT 13/12 A3006 RMK A01 T01300121  RH  094%=      5-min Rain = 0
KWE2 240333Z 03007KT 13/12 A3006 RMK A01 T01300120  RH  094%=      5-min Rain = 0
KWE2 240334Z 03007KT 13/12 A3006 RMK A01 T01300120  RH  094%=      5-min Rain = 0
KWE2 240335Z 03007KT 13/12 A3006 RMK A01 T01300120  RH  094%=      5-min Rain = 0
KWE2 240336Z 04007KT 13/12 A3006 RMK A01 T01300121  RH  094%=      5-min Rain = 0
KWE2 240337Z 04006KT 13/12 A3006 RMK A01 T01300121  RH  094%=      5-min Rain = 0
KWE2 240338Z 04006KT 13/12 A3006 RMK A01 T01300121  RH  094%=      5-min Rain = 0
KWE2 240339Z 05005KT 13/12 A3006 RMK A01 T01290121  RH  095%=      5-min Rain = 0
KWE2 240340Z 06005KT 13/12 A3007 RMK A01 T01290121  RH  095%=      5-min Rain = 0
KWE2 240341Z 06004KT 13/12 A3007 RMK A01 T01290121  RH  095%=      5-min Rain = 0
KWE2 240342Z 06005KT 13/12 A3007 RMK A01 T01290121  RH  095%=      5-min Rain = 0
KWE2 240343Z 07005KT 13/12 A3007 RMK A01 T01290121  RH  095%=      5-min Rain = 0
KWE2 240344Z 07005KT 13/12 A3007 RMK A01 T01290121  RH  095%=      5-min Rain = 0
KWE2 240345Z 06004KT 13/12 A3007 RMK A01 T01290121  RH  095%=      5-min Rain = 0
KWE2 240346Z 07004KT 13/12 A3007 RMK A01 T01290121  RH  095%=      5-min Rain = 0
KWE2 240347Z 06005KT 13/12 A3007 RMK A01 T01290121  RH  095%=      5-min Rain = 0
KWE2 240348Z 07006KT 13/12 A3007 RMK A01 T01290121  RH  095%=      5-min Rain = 0
KWE2 240349Z 08005KT 13/12 A3007 RMK A01 T01290121  RH  095%=      5-min Rain = 0
KWE2 240350Z 08004KT 13/12 A3007 RMK A01 T01290121  RH  095%=      5-min Rain = 0
KWE2 240351Z 08004KT 13/12 A3007 RMK A01 T01290122  RH  095%=      5-min Rain = 0
KWE2 240352Z 07005KT 13/12 A3007 RMK A01 T01290122  RH  095%=      5-min Rain = 0
KWE2 240353Z 07004KT 13/12 A3007 RMK A01 T01290122  RH  096%=      5-min Rain = 0
KWE2 240354Z 06003KT 13/12 A3007 RMK A01 T01290122  RH  096%=      5-min Rain = 0
KWE2 240355Z 05004KT 13/12 A3007 RMK A01 T01290123  RH  096%=      5-min Rain = 0
KWE2 240356Z 04003KT 13/12 A3007 RMK A01 T01290123  RH  096%=      5-min Rain = 0
KWE2 240357Z 04004KT 13/12 A3007 RMK A01 T01280123  RH  097%=      5-min Rain = 0
KWE2 240358Z 04004KT 13/12 A3006 RMK A01 T01280123  RH  097%=      5-min Rain = 0
KWE2 240359Z 04004KT 13/12 A3006 RMK A01 T01280123  RH  097%=      5-min Rain = 0
KWE2 240400Z 05005KT 13/12 A3006 RMK A01 T01270123  RH  097%=      5-min Rain = 0
KWE2 240401Z 05004KT 13/12 A3006 RMK A01 T01270124  RH  098%=      5-min Rain = 0
KWE2 240402Z 06004KT 13/12 A3006 RMK A01 T01270124  RH  098%=      5-min Rain = 0
KWE2 240403Z 05006KT 13/12 A3006 RMK A01 T01270124  RH  098%=      5-min Rain = 0
KWE2 240404Z 06005KT 13/12 A3006 RMK A01 T01270124  RH  098%=      5-min Rain = 0
KWE2 240405Z 05005KT 13/13 A3006 RMK A01 T01270125  RH  098%=      5-min Rain = 0
KWE2 240406Z 05004KT 13/12 A3005 RMK A01 T01270124  RH  098%=      5-min Rain = 0
KWE2 240407Z 05004KT 13/12 A3005 RMK A01 T01270124  RH  098%=      5-min Rain = 0
KWE2 240408Z 05005KT 13/12 A3005 RMK A01 T01270124  RH  098%=      5-min Rain = 0
KWE2 240409Z 03005KT 13/12 A3005 RMK A01 T01260124  RH  098%=      5-min Rain = 0
KWE2 240410Z 03007KT 13/12 A3005 RMK A01 T01260124  RH  098%=      5-min Rain = 0
KWE2 240411Z 04007KT 13/12 A3005 RMK A01 T01260124  RH  098%=      5-min Rain = 0
KWE2 240412Z 02006KT 13/12 A3005 RMK A01 T01260123  RH  098%=      5-min Rain = 0
KWE2 240413Z 03007KT 13/12 A3005 RMK A01 T01260123  RH  098%=      5-min Rain = 0
KWE2 240414Z 02007KT 13/12 A3005 RMK A01 T01260123  RH  098%=      5-min Rain = 0
KWE2 240415Z 03008KT 13/12 A3005 RMK A01 T01260123  RH  098%=      5-min Rain = 0
KWE2 240416Z 03009KT 13/12 A3004 RMK A01 T01270123  RH  097%=      5-min Rain = 0
KWE2 240417Z 03008KT 13/12 A3004 RMK A01 T01260122  RH  097%=      5-min Rain = 0
KWE2 240418Z 03009KT 13/12 A3004 RMK A01 T01260122  RH  097%=      5-min Rain = 0
KWE2 240419Z 03009KT 13/12 A3004 RMK A01 T01260122  RH  097%=      5-min Rain = 0
KWE2 240420Z 03010KT 13/12 A3004 RMK A01 T01270122  RH  097%=      5-min Rain = 0
KWE2 240421Z 03008KT 13/12 A3004 RMK A01 T01260122  RH  097%=      5-min Rain = 0
KWE2 240422Z 03008KT 13/12 A3004 RMK A01 T01260122  RH  097%=      5-min Rain = 0
KWE2 240423Z 03009KT 13/12 A3003 RMK A01 T01260122  RH  097%=      5-min Rain = 0
KWE2 240424Z 03008KT 13/12 A3003 RMK A01 T01260122  RH  097%=      5-min Rain = 0
KWE2 240425Z 03009KT 13/12 A3003 RMK A01 T01260122  RH  097%=      5-min Rain = 0
KWE2 240426Z 03008KT 13/12 A3003 RMK A01 T01260122  RH  097%=      5-min Rain = 0
KWE2 240427Z 03008KT 13/12 A3003 RMK A01 T01260122  RH  097%=      5-min Rain = 0
KWE2 240428Z 04008KT 13/12 A3003 RMK A01 T01260122  RH  097%=      5-min Rain = 0
KWE2 240429Z 04008KT 13/12 A3002 RMK A01 T01260122  RH  098%=      5-min Rain = 0
KWE2 240430Z 03009KT 13/12 A3002 RMK A01 T01250122  RH  098%=      5-min Rain = 0
KWE2 240431Z 03007KT 13/12 A3002 RMK A01 T01250122  RH  098%=      5-min Rain = 0
KWE2 240432Z 03009KT 13/12 A3002 RMK A01 T01250122  RH  098%=      5-min Rain = 0
KWE2 240433Z 03010KT 13/12 A3002 RMK A01 T01250122  RH  098%=      5-min Rain = 0
KWE2 240434Z 03009KT 13/12 A3002 RMK A01 T01250122  RH  098%=      5-min Rain = 0
KWE2 240435Z 03009KT 13/12 A3002 RMK A01 T01250122  RH  098%=      5-min Rain = 0
KWE2 240436Z 03009KT 13/12 A3001 RMK A01 T01250122  RH  098%=      5-min Rain = 0
KWE2 240437Z 03008KT 13/12 A3001 RMK A01 T01250122  RH  098%=      5-min Rain = 0
KWE2 240438Z 03008KT 13/12 A3001 RMK A01 T01250122  RH  098%=      5-min Rain = 0
KWE2 240439Z 03009KT 13/12 A3001 RMK A01 T01250122  RH  098%=      5-min Rain = 0
KWE2 240440Z 03009KT 12/12 A3001 RMK A01 T01240122  RH  098%=      5-min Rain = 0
KWE2 240441Z 03008KT 12/12 A3001 RMK A01 T01240122  RH  098%=      5-min Rain = 0
KWE2 240442Z 03010KT 12/12 A3001 RMK A01 T01240122  RH  098%=      5-min Rain = 0
KWE2 240443Z 03009KT 13/12 A3001 RMK A01 T01250121  RH  098%=      5-min Rain = 0
KWE2 240444Z 03009KT 13/12 A3001 RMK A01 T01250121  RH  098%=      5-min Rain = 0
KWE2 240445Z 03009KT 13/12 A30 RMK A01 T01250121  RH  098%=      5-min Rain = 0
KWE2 240446Z 04009KT 13/12 A30 RMK A01 T01250122  RH  098%=      5-min Rain = 0
KWE2 240447Z 04009KT 12/12 A30 RMK A01 T01240121  RH  098%=      5-min Rain = 0
KWE2 240448Z 04009KT 12/12 A3001 RMK A01 T01240121  RH  098%=      5-min Rain = 0
KWE2 240449Z 04009KT 12/12 A3001 RMK A01 T01240121  RH  098%=      5-min Rain = 0
KWE2 240450Z 04008KT 12/12 A3001 RMK A01 T01240121  RH  098%=      5-min Rain = 0
KWE2 240451Z 04007KT 12/12 A30 RMK A01 T01240121  RH  098%=      5-min Rain = 0
KWE2 240452Z 04007KT 12/12 A30 RMK A01 T01240120  RH  098%=      5-min Rain = 0
KWE2 240453Z 04006KT 12/12 A30 RMK A01 T01240121  RH  098%=      5-min Rain = 0
KWE2 240454Z 04008KT 12/12 A30 RMK A01 T01240121  RH  098%=      5-min Rain = 0
KWE2 240455Z 03009KT 12/12 A30 RMK A01 T01240121  RH  098%=      5-min Rain = 0
KWE2 240456Z 03008KT 12/12 A30 RMK A01 T01240121  RH  098%=      5-min Rain = 0
KWE2 240457Z 03008KT 12/12 A30 RMK A01 T01240121  RH  098%=      5-min Rain = 0
KWE2 240458Z 03010KT 12/12 A30 RMK A01 T01230120  RH  098%=      5-min Rain = 0
KWE2 240459Z 03009KT 12/12 A30 RMK A01 T01230120  RH  098%=      5-min Rain = 0

Page generated in 0.1225 seconds.